<?xml version="1.0" encoding="UTF-8"?><gpx version="1.1" xmlns:xsd="http://www.w3.org/2001/XMLSchema" xmlns:xsi="http://www.w3.org/2001/XMLSchema-instance" creator="NotARubicon.com. All Rights Reserved. https://www.notarubicon.com" xsi:schemaLocation="http://www.topografix.com/GPX/1/1 http://www.topografix.com/GPX/1/1/gpx.xsd http://www.magellangps.com/mgnext/0/2 http://www.magellangps.com/mgnext/0/2/mgn.xsd http://www.groundspeak.com/cache/1/0 http://www.groundspeak.com/cache/1/0/cache.xsd" xmlns="http://www.topografix.com/GPX/1/1">
<trk>
    <name>Old Dale Rd</name>
    <desc></desc>
    <extensions>
      <mgn:extensions xmlns:mgn="http://www.magellangps.com/mgnext/0/2">
        <mgn:difficulty>1</mgn:difficulty>
        <mgn:rating>5</mgn:rating>
        <mgn:uuid>c94cbd11-ab5b-4ac7-9050-10a504f36f57</mgn:uuid>
        <mgn:proplist>
          <mgn:prop key="Vehicle">9929</mgn:prop>
          <mgn:prop key="VehicleType">,OHV</mgn:prop>
          <mgn:prop key="WD">Some</mgn:prop>
          <mgn:prop key="LO">Some</mgn:prop>
          <mgn:prop key="DIRT">Loose;</mgn:prop>
          <mgn:prop key="T_MUD"></mgn:prop>
          <mgn:prop key="T_SAND">0-6N</mgn:prop>
          <mgn:prop key="T_SNOW"></mgn:prop>
          <mgn:prop key="T_ICE"></mgn:prop>
          <mgn:prop key="T_WATER"></mgn:prop>
          <mgn:prop key="T_ROCK"></mgn:prop>
          <mgn:prop key="PITCH">10-20</mgn:prop>
          <mgn:prop key="ROLL"></mgn:prop>
          <mgn:prop key="MAGELLAN_OFFROAD_KEY">0</mgn:prop>
          <mgn:prop key="Author">NotARubicon</mgn:prop>
          <mgn:prop key="InstagramUpdate">True</mgn:prop>
          <mgn:prop key="MaxElevation">754</mgn:prop>
          <mgn:prop key="MinElevation">385</mgn:prop>
          <mgn:prop key="ElevationChange">368.09766</mgn:prop>
          <mgn:prop key="RecordedTime">7886</mgn:prop>
          <mgn:prop key="Length">39605.312</mgn:prop>
          <mgn:prop key="Type">Trail</mgn:prop>
          <mgn:prop key="Type2">Trail</mgn:prop>
        </mgn:proplist>
      </mgn:extensions>
    </extensions>

    <trkseg>
      <trkpt lat="34.121507" lon="-115.794582">
        <ele>385.500000</ele>
        <time>2020-06-20T17:24:00.000Z</time>
      </trkpt>
      <trkpt lat="34.1214" lon="-115.794459">
        <ele>388.000000</ele>
        <time>2020-06-20T17:25:22.000Z</time>
      </trkpt>
      <trkpt lat="34.121365" lon="-115.794429">
        <ele>388.199219</ele>
        <time>2020-06-20T17:25:24.000Z</time>
      </trkpt>
      <trkpt lat="34.121297" lon="-115.794379">
        <ele>388.097656</ele>
        <time>2020-06-20T17:25:25.000Z</time>
      </trkpt>
      <trkpt lat="34.12075" lon="-115.794048">
        <ele>389.500000</ele>
        <time>2020-06-20T17:25:38.000Z</time>
      </trkpt>
      <trkpt lat="34.120708" lon="-115.794027">
        <ele>390.000000</ele>
        <time>2020-06-20T17:25:40.000Z</time>
      </trkpt>
      <trkpt lat="34.120623" lon="-115.793998">
        <ele>390.398438</ele>
        <time>2020-06-20T17:25:41.000Z</time>
      </trkpt>
      <trkpt lat="34.120579" lon="-115.79399">
        <ele>391.000000</ele>
        <time>2020-06-20T17:25:43.000Z</time>
      </trkpt>
      <trkpt lat="34.120445" lon="-115.793979">
        <ele>391.500000</ele>
        <time>2020-06-20T17:25:45.000Z</time>
      </trkpt>
      <trkpt lat="34.120399" lon="-115.793968">
        <ele>391.796875</ele>
        <time>2020-06-20T17:25:46.000Z</time>
      </trkpt>
      <trkpt lat="34.120353" lon="-115.793952">
        <ele>392.199219</ele>
        <time>2020-06-20T17:25:47.000Z</time>
      </trkpt>
      <trkpt lat="34.12031" lon="-115.793932">
        <ele>392.398438</ele>
        <time>2020-06-20T17:25:48.000Z</time>
      </trkpt>
      <trkpt lat="34.120269" lon="-115.793905">
        <ele>392.796875</ele>
        <time>2020-06-20T17:25:49.000Z</time>
      </trkpt>
      <trkpt lat="34.120233" lon="-115.793873">
        <ele>393.597656</ele>
        <time>2020-06-20T17:25:51.000Z</time>
      </trkpt>
      <trkpt lat="34.120168" lon="-115.7938">
        <ele>394.000000</ele>
        <time>2020-06-20T17:25:52.000Z</time>
      </trkpt>
      <trkpt lat="34.120137" lon="-115.793764">
        <ele>394.597656</ele>
        <time>2020-06-20T17:25:54.000Z</time>
      </trkpt>
      <trkpt lat="34.120069" lon="-115.793697">
        <ele>394.898438</ele>
        <time>2020-06-20T17:25:55.000Z</time>
      </trkpt>
      <trkpt lat="34.120031" lon="-115.793671">
        <ele>395.000000</ele>
        <time>2020-06-20T17:25:56.000Z</time>
      </trkpt>
      <trkpt lat="34.117299" lon="-115.791935">
        <ele>397.898438</ele>
        <time>2020-06-20T17:26:45.000Z</time>
      </trkpt>
      <trkpt lat="34.114039" lon="-115.789989">
        <ele>405.398438</ele>
        <time>2020-06-20T17:27:40.000Z</time>
      </trkpt>
      <trkpt lat="34.11363" lon="-115.789784">
        <ele>407.097656</ele>
        <time>2020-06-20T17:27:47.000Z</time>
      </trkpt>
      <trkpt lat="34.113574" lon="-115.789745">
        <ele>407.199219</ele>
        <time>2020-06-20T17:27:48.000Z</time>
      </trkpt>
      <trkpt lat="34.113521" lon="-115.789701">
        <ele>406.796875</ele>
        <time>2020-06-20T17:27:49.000Z</time>
      </trkpt>
      <trkpt lat="34.11347" lon="-115.789653">
        <ele>406.699219</ele>
        <time>2020-06-20T17:27:50.000Z</time>
      </trkpt>
      <trkpt lat="34.113374" lon="-115.789554">
        <ele>407.199219</ele>
        <time>2020-06-20T17:27:52.000Z</time>
      </trkpt>
      <trkpt lat="34.113321" lon="-115.789512">
        <ele>407.398438</ele>
        <time>2020-06-20T17:27:53.000Z</time>
      </trkpt>
      <trkpt lat="34.113264" lon="-115.789476">
        <ele>407.597656</ele>
        <time>2020-06-20T17:27:54.000Z</time>
      </trkpt>
      <trkpt lat="34.109372" lon="-115.787031">
        <ele>423.097656</ele>
        <time>2020-06-20T17:29:08.000Z</time>
      </trkpt>
      <trkpt lat="34.107715" lon="-115.78604">
        <ele>425.898438</ele>
        <time>2020-06-20T17:29:36.000Z</time>
      </trkpt>
      <trkpt lat="34.105685" lon="-115.784796">
        <ele>431.000000</ele>
        <time>2020-06-20T17:30:08.000Z</time>
      </trkpt>
      <trkpt lat="34.105212" lon="-115.784522">
        <ele>432.699219</ele>
        <time>2020-06-20T17:30:18.000Z</time>
      </trkpt>
      <trkpt lat="34.095983" lon="-115.778829">
        <ele>454.796875</ele>
        <time>2020-06-20T17:32:30.000Z</time>
      </trkpt>
      <trkpt lat="34.095983" lon="-115.77883">
        <ele>455.500000</ele>
        <time>2020-06-20T17:32:35.000Z</time>
      </trkpt>
      <trkpt lat="34.095874" lon="-115.778756">
        <ele>455.500000</ele>
        <time>2020-06-20T17:32:36.000Z</time>
      </trkpt>
      <trkpt lat="34.095747" lon="-115.778682">
        <ele>456.000000</ele>
        <time>2020-06-20T17:32:39.000Z</time>
      </trkpt>
      <trkpt lat="34.095139" lon="-115.778305">
        <ele>456.500000</ele>
        <time>2020-06-20T17:32:50.000Z</time>
      </trkpt>
      <trkpt lat="34.094549" lon="-115.777906">
        <ele>457.796875</ele>
        <time>2020-06-20T17:33:00.000Z</time>
      </trkpt>
      <trkpt lat="34.079731" lon="-115.76881">
        <ele>491.699219</ele>
        <time>2020-06-20T17:37:15.000Z</time>
      </trkpt>
      <trkpt lat="34.079732" lon="-115.768811">
        <ele>492.199219</ele>
        <time>2020-06-20T17:37:20.000Z</time>
      </trkpt>
      <trkpt lat="34.079627" lon="-115.768741">
        <ele>492.296875</ele>
        <time>2020-06-20T17:37:21.000Z</time>
      </trkpt>
      <trkpt lat="34.074557" lon="-115.765613">
        <ele>503.796875</ele>
        <time>2020-06-20T17:38:57.000Z</time>
      </trkpt>
      <trkpt lat="34.074396" lon="-115.765545">
        <ele>504.398438</ele>
        <time>2020-06-20T17:39:00.000Z</time>
      </trkpt>
      <trkpt lat="34.074043" lon="-115.765441">
        <ele>505.500000</ele>
        <time>2020-06-20T17:39:06.000Z</time>
      </trkpt>
      <trkpt lat="34.073658" lon="-115.765372">
        <ele>506.296875</ele>
        <time>2020-06-20T17:39:12.000Z</time>
      </trkpt>
      <trkpt lat="34.073327" lon="-115.765357">
        <ele>507.500000</ele>
        <time>2020-06-20T17:39:17.000Z</time>
      </trkpt>
      <trkpt lat="34.072933" lon="-115.765389">
        <ele>509.000000</ele>
        <time>2020-06-20T17:39:23.000Z</time>
      </trkpt>
      <trkpt lat="34.072628" lon="-115.765449">
        <ele>508.898438</ele>
        <time>2020-06-20T17:39:27.000Z</time>
      </trkpt>
      <trkpt lat="34.070915" lon="-115.76589">
        <ele>508.796875</ele>
        <time>2020-06-20T17:39:53.000Z</time>
      </trkpt>
      <trkpt lat="34.07086" lon="-115.765914">
        <ele>508.500000</ele>
        <time>2020-06-20T17:39:54.000Z</time>
      </trkpt>
      <trkpt lat="34.070764" lon="-115.765963">
        <ele>507.699219</ele>
        <time>2020-06-20T17:39:56.000Z</time>
      </trkpt>
      <trkpt lat="34.070446" lon="-115.76614">
        <ele>505.898438</ele>
        <time>2020-06-20T17:40:02.000Z</time>
      </trkpt>
      <trkpt lat="34.070337" lon="-115.76618">
        <ele>505.500000</ele>
        <time>2020-06-20T17:40:04.000Z</time>
      </trkpt>
      <trkpt lat="34.070289" lon="-115.76619">
        <ele>505.000000</ele>
        <time>2020-06-20T17:40:05.000Z</time>
      </trkpt>
      <trkpt lat="34.070235" lon="-115.766194">
        <ele>504.796875</ele>
        <time>2020-06-20T17:40:06.000Z</time>
      </trkpt>
      <trkpt lat="34.070178" lon="-115.766194">
        <ele>504.699219</ele>
        <time>2020-06-20T17:40:07.000Z</time>
      </trkpt>
      <trkpt lat="34.069368" lon="-115.766219">
        <ele>503.199219</ele>
        <time>2020-06-20T17:40:23.000Z</time>
      </trkpt>
      <trkpt lat="34.069346" lon="-115.766225">
        <ele>503.000000</ele>
        <time>2020-06-20T17:40:29.000Z</time>
      </trkpt>
      <trkpt lat="34.069273" lon="-115.766246">
        <ele>502.597656</ele>
        <time>2020-06-20T17:40:31.000Z</time>
      </trkpt>
      <trkpt lat="34.069246" lon="-115.766263">
        <ele>502.898438</ele>
        <time>2020-06-20T17:40:35.000Z</time>
      </trkpt>
      <trkpt lat="34.068994" lon="-115.766387">
        <ele>503.597656</ele>
        <time>2020-06-20T17:40:44.000Z</time>
      </trkpt>
      <trkpt lat="34.068854" lon="-115.766448">
        <ele>503.296875</ele>
        <time>2020-06-20T17:40:49.000Z</time>
      </trkpt>
      <trkpt lat="34.068824" lon="-115.766456">
        <ele>503.500000</ele>
        <time>2020-06-20T17:40:51.000Z</time>
      </trkpt>
      <trkpt lat="34.068657" lon="-115.766484">
        <ele>503.398438</ele>
        <time>2020-06-20T17:40:55.000Z</time>
      </trkpt>
      <trkpt lat="34.068549" lon="-115.766497">
        <ele>504.199219</ele>
        <time>2020-06-20T17:40:58.000Z</time>
      </trkpt>
      <trkpt lat="34.068361" lon="-115.766523">
        <ele>504.597656</ele>
        <time>2020-06-20T17:41:03.000Z</time>
      </trkpt>
      <trkpt lat="34.067584" lon="-115.76668">
        <ele>504.699219</ele>
        <time>2020-06-20T17:41:17.000Z</time>
      </trkpt>
      <trkpt lat="34.067516" lon="-115.76668">
        <ele>504.898438</ele>
        <time>2020-06-20T17:41:18.000Z</time>
      </trkpt>
      <trkpt lat="34.067012" lon="-115.766651">
        <ele>505.796875</ele>
        <time>2020-06-20T17:41:25.000Z</time>
      </trkpt>
      <trkpt lat="34.066723" lon="-115.766617">
        <ele>506.398438</ele>
        <time>2020-06-20T17:41:29.000Z</time>
      </trkpt>
      <trkpt lat="34.066651" lon="-115.766624">
        <ele>506.097656</ele>
        <time>2020-06-20T17:41:30.000Z</time>
      </trkpt>
      <trkpt lat="34.066147" lon="-115.766685">
        <ele>506.796875</ele>
        <time>2020-06-20T17:41:37.000Z</time>
      </trkpt>
      <trkpt lat="34.065925" lon="-115.766671">
        <ele>507.097656</ele>
        <time>2020-06-20T17:41:42.000Z</time>
      </trkpt>
      <trkpt lat="34.065655" lon="-115.766669">
        <ele>506.898438</ele>
        <time>2020-06-20T17:41:51.000Z</time>
      </trkpt>
      <trkpt lat="34.065623" lon="-115.766664">
        <ele>506.500000</ele>
        <time>2020-06-20T17:41:53.000Z</time>
      </trkpt>
      <trkpt lat="34.065563" lon="-115.766662">
        <ele>506.097656</ele>
        <time>2020-06-20T17:41:54.000Z</time>
      </trkpt>
      <trkpt lat="34.065019" lon="-115.766665">
        <ele>505.796875</ele>
        <time>2020-06-20T17:42:09.000Z</time>
      </trkpt>
      <trkpt lat="34.064847" lon="-115.766671">
        <ele>507.398438</ele>
        <time>2020-06-20T17:42:15.000Z</time>
      </trkpt>
      <trkpt lat="34.064818" lon="-115.766666">
        <ele>507.199219</ele>
        <time>2020-06-20T17:42:17.000Z</time>
      </trkpt>
      <trkpt lat="34.0646" lon="-115.766638">
        <ele>508.597656</ele>
        <time>2020-06-20T17:42:21.000Z</time>
      </trkpt>
      <trkpt lat="34.064484" lon="-115.766634">
        <ele>508.898438</ele>
        <time>2020-06-20T17:42:23.000Z</time>
      </trkpt>
      <trkpt lat="34.062521" lon="-115.766618">
        <ele>513.699219</ele>
        <time>2020-06-20T17:42:54.000Z</time>
      </trkpt>
      <trkpt lat="34.062207" lon="-115.766562">
        <ele>514.199219</ele>
        <time>2020-06-20T17:42:58.000Z</time>
      </trkpt>
      <trkpt lat="34.058467" lon="-115.765732">
        <ele>522.699219</ele>
        <time>2020-06-20T17:43:47.000Z</time>
      </trkpt>
      <trkpt lat="34.05832" lon="-115.765722">
        <ele>522.699219</ele>
        <time>2020-06-20T17:43:49.000Z</time>
      </trkpt>
      <trkpt lat="34.058031" lon="-115.765731">
        <ele>522.699219</ele>
        <time>2020-06-20T17:43:53.000Z</time>
      </trkpt>
      <trkpt lat="34.057787" lon="-115.76576">
        <ele>522.097656</ele>
        <time>2020-06-20T17:43:58.000Z</time>
      </trkpt>
      <trkpt lat="34.05775" lon="-115.765772">
        <ele>521.097656</ele>
        <time>2020-06-20T17:44:00.000Z</time>
      </trkpt>
      <trkpt lat="34.05695" lon="-115.766061">
        <ele>522.500000</ele>
        <time>2020-06-20T17:44:18.000Z</time>
      </trkpt>
      <trkpt lat="34.056902" lon="-115.766067">
        <ele>522.398438</ele>
        <time>2020-06-20T17:44:19.000Z</time>
      </trkpt>
      <trkpt lat="34.056791" lon="-115.766074">
        <ele>522.000000</ele>
        <time>2020-06-20T17:44:21.000Z</time>
      </trkpt>
      <trkpt lat="34.056725" lon="-115.766069">
        <ele>521.597656</ele>
        <time>2020-06-20T17:44:22.000Z</time>
      </trkpt>
      <trkpt lat="34.056658" lon="-115.766061">
        <ele>521.500000</ele>
        <time>2020-06-20T17:44:23.000Z</time>
      </trkpt>
      <trkpt lat="34.05653" lon="-115.766037">
        <ele>521.796875</ele>
        <time>2020-06-20T17:44:25.000Z</time>
      </trkpt>
      <trkpt lat="34.056469" lon="-115.766021">
        <ele>522.296875</ele>
        <time>2020-06-20T17:44:26.000Z</time>
      </trkpt>
      <trkpt lat="34.05641" lon="-115.765996">
        <ele>522.398438</ele>
        <time>2020-06-20T17:44:27.000Z</time>
      </trkpt>
      <trkpt lat="34.056354" lon="-115.765966">
        <ele>522.796875</ele>
        <time>2020-06-20T17:44:28.000Z</time>
      </trkpt>
      <trkpt lat="34.0563" lon="-115.765928">
        <ele>522.699219</ele>
        <time>2020-06-20T17:44:29.000Z</time>
      </trkpt>
      <trkpt lat="34.056193" lon="-115.765841">
        <ele>522.398438</ele>
        <time>2020-06-20T17:44:31.000Z</time>
      </trkpt>
      <trkpt lat="34.055319" lon="-115.764961">
        <ele>523.199219</ele>
        <time>2020-06-20T17:44:51.000Z</time>
      </trkpt>
      <trkpt lat="34.055197" lon="-115.764833">
        <ele>523.898438</ele>
        <time>2020-06-20T17:44:54.000Z</time>
      </trkpt>
      <trkpt lat="34.055153" lon="-115.764795">
        <ele>524.000000</ele>
        <time>2020-06-20T17:44:55.000Z</time>
      </trkpt>
      <trkpt lat="34.054401" lon="-115.764096">
        <ele>525.898438</ele>
        <time>2020-06-20T17:45:10.000Z</time>
      </trkpt>
      <trkpt lat="34.05399" lon="-115.763659">
        <ele>527.296875</ele>
        <time>2020-06-20T17:45:21.000Z</time>
      </trkpt>
      <trkpt lat="34.05399" lon="-115.763659">
        <ele>526.296875</ele>
        <time>2020-06-20T17:45:54.000Z</time>
      </trkpt>
      <trkpt lat="34.053902" lon="-115.763551">
        <ele>526.500000</ele>
        <time>2020-06-20T17:45:55.000Z</time>
      </trkpt>
      <trkpt lat="34.053815" lon="-115.763427">
        <ele>527.000000</ele>
        <time>2020-06-20T17:45:58.000Z</time>
      </trkpt>
      <trkpt lat="34.053756" lon="-115.763327">
        <ele>527.000000</ele>
        <time>2020-06-20T17:46:00.000Z</time>
      </trkpt>
      <trkpt lat="34.053699" lon="-115.763206">
        <ele>527.097656</ele>
        <time>2020-06-20T17:46:02.000Z</time>
      </trkpt>
      <trkpt lat="34.053643" lon="-115.763068">
        <ele>527.796875</ele>
        <time>2020-06-20T17:46:04.000Z</time>
      </trkpt>
      <trkpt lat="34.053548" lon="-115.762756">
        <ele>528.398438</ele>
        <time>2020-06-20T17:46:08.000Z</time>
      </trkpt>
      <trkpt lat="34.053427" lon="-115.762165">
        <ele>528.898438</ele>
        <time>2020-06-20T17:46:17.000Z</time>
      </trkpt>
      <trkpt lat="34.053301" lon="-115.761537">
        <ele>531.097656</ele>
        <time>2020-06-20T17:46:27.000Z</time>
      </trkpt>
      <trkpt lat="34.053238" lon="-115.76134">
        <ele>530.500000</ele>
        <time>2020-06-20T17:46:30.000Z</time>
      </trkpt>
      <trkpt lat="34.053163" lon="-115.761152">
        <ele>529.796875</ele>
        <time>2020-06-20T17:46:33.000Z</time>
      </trkpt>
      <trkpt lat="34.053133" lon="-115.761092">
        <ele>529.500000</ele>
        <time>2020-06-20T17:46:34.000Z</time>
      </trkpt>
      <trkpt lat="34.053101" lon="-115.761034">
        <ele>529.398438</ele>
        <time>2020-06-20T17:46:35.000Z</time>
      </trkpt>
      <trkpt lat="34.05303" lon="-115.760928">
        <ele>529.500000</ele>
        <time>2020-06-20T17:46:37.000Z</time>
      </trkpt>
      <trkpt lat="34.05283" lon="-115.760682">
        <ele>529.898438</ele>
        <time>2020-06-20T17:46:42.000Z</time>
      </trkpt>
      <trkpt lat="34.052695" lon="-115.760542">
        <ele>530.500000</ele>
        <time>2020-06-20T17:46:45.000Z</time>
      </trkpt>
      <trkpt lat="34.052417" lon="-115.7603">
        <ele>531.796875</ele>
        <time>2020-06-20T17:46:50.000Z</time>
      </trkpt>
      <trkpt lat="34.051203" lon="-115.759449">
        <ele>534.500000</ele>
        <time>2020-06-20T17:47:09.000Z</time>
      </trkpt>
      <trkpt lat="34.049556" lon="-115.75829">
        <ele>537.398438</ele>
        <time>2020-06-20T17:47:34.000Z</time>
      </trkpt>
      <trkpt lat="34.049441" lon="-115.758189">
        <ele>537.898438</ele>
        <time>2020-06-20T17:47:36.000Z</time>
      </trkpt>
      <trkpt lat="34.04928" lon="-115.758033">
        <ele>538.296875</ele>
        <time>2020-06-20T17:47:39.000Z</time>
      </trkpt>
      <trkpt lat="34.049221" lon="-115.757992">
        <ele>538.500000</ele>
        <time>2020-06-20T17:47:40.000Z</time>
      </trkpt>
      <trkpt lat="34.049161" lon="-115.75796">
        <ele>538.699219</ele>
        <time>2020-06-20T17:47:41.000Z</time>
      </trkpt>
      <trkpt lat="34.048854" lon="-115.757806">
        <ele>538.898438</ele>
        <time>2020-06-20T17:47:46.000Z</time>
      </trkpt>
      <trkpt lat="34.046051" lon="-115.755892">
        <ele>540.296875</ele>
        <time>2020-06-20T17:48:35.000Z</time>
      </trkpt>
      <trkpt lat="34.045999" lon="-115.755849">
        <ele>540.898438</ele>
        <time>2020-06-20T17:48:36.000Z</time>
      </trkpt>
      <trkpt lat="34.045618" lon="-115.755563">
        <ele>541.296875</ele>
        <time>2020-06-20T17:48:43.000Z</time>
      </trkpt>
      <trkpt lat="34.043354" lon="-115.754026">
        <ele>546.296875</ele>
        <time>2020-06-20T17:49:18.000Z</time>
      </trkpt>
      <trkpt lat="34.043141" lon="-115.75385">
        <ele>546.898438</ele>
        <time>2020-06-20T17:49:22.000Z</time>
      </trkpt>
      <trkpt lat="34.039625" lon="-115.751435">
        <ele>557.296875</ele>
        <time>2020-06-20T17:50:19.000Z</time>
      </trkpt>
      <trkpt lat="34.03931" lon="-115.751266">
        <ele>558.097656</ele>
        <time>2020-06-20T17:50:24.000Z</time>
      </trkpt>
      <trkpt lat="34.039258" lon="-115.751224">
        <ele>558.296875</ele>
        <time>2020-06-20T17:50:25.000Z</time>
      </trkpt>
      <trkpt lat="34.038714" lon="-115.750798">
        <ele>560.000000</ele>
        <time>2020-06-20T17:50:35.000Z</time>
      </trkpt>
      <trkpt lat="34.038653" lon="-115.750756">
        <ele>560.000000</ele>
        <time>2020-06-20T17:50:36.000Z</time>
      </trkpt>
      <trkpt lat="34.038589" lon="-115.750721">
        <ele>560.199219</ele>
        <time>2020-06-20T17:50:37.000Z</time>
      </trkpt>
      <trkpt lat="34.038402" lon="-115.75061">
        <ele>560.000000</ele>
        <time>2020-06-20T17:50:40.000Z</time>
      </trkpt>
      <trkpt lat="34.036684" lon="-115.749428">
        <ele>560.296875</ele>
        <time>2020-06-20T17:51:08.000Z</time>
      </trkpt>
      <trkpt lat="34.036511" lon="-115.749302">
        <ele>560.796875</ele>
        <time>2020-06-20T17:51:11.000Z</time>
      </trkpt>
      <trkpt lat="34.032889" lon="-115.746821">
        <ele>570.898438</ele>
        <time>2020-06-20T17:52:12.000Z</time>
      </trkpt>
      <trkpt lat="34.032572" lon="-115.746548">
        <ele>571.699219</ele>
        <time>2020-06-20T17:52:18.000Z</time>
      </trkpt>
      <trkpt lat="34.029835" lon="-115.744678">
        <ele>581.199219</ele>
        <time>2020-06-20T17:53:06.000Z</time>
      </trkpt>
      <trkpt lat="34.02979" lon="-115.744652">
        <ele>581.296875</ele>
        <time>2020-06-20T17:53:07.000Z</time>
      </trkpt>
      <trkpt lat="34.029572" lon="-115.744527">
        <ele>580.398438</ele>
        <time>2020-06-20T17:53:11.000Z</time>
      </trkpt>
      <trkpt lat="34.024251" lon="-115.740833">
        <ele>579.898438</ele>
        <time>2020-06-20T17:54:31.000Z</time>
      </trkpt>
      <trkpt lat="34.024251" lon="-115.740833">
        <ele>579.796875</ele>
        <time>2020-06-20T17:54:38.000Z</time>
      </trkpt>
      <trkpt lat="34.02415" lon="-115.740761">
        <ele>580.000000</ele>
        <time>2020-06-20T17:54:39.000Z</time>
      </trkpt>
      <trkpt lat="34.021725" lon="-115.739063">
        <ele>583.898438</ele>
        <time>2020-06-20T17:55:32.000Z</time>
      </trkpt>
      <trkpt lat="34.021318" lon="-115.738677">
        <ele>585.000000</ele>
        <time>2020-06-20T17:55:46.000Z</time>
      </trkpt>
      <trkpt lat="34.021249" lon="-115.738588">
        <ele>585.597656</ele>
        <time>2020-06-20T17:55:48.000Z</time>
      </trkpt>
      <trkpt lat="34.020881" lon="-115.738037">
        <ele>585.796875</ele>
        <time>2020-06-20T17:55:58.000Z</time>
      </trkpt>
      <trkpt lat="34.015635" lon="-115.728666">
        <ele>606.796875</ele>
        <time>2020-06-20T17:57:43.000Z</time>
      </trkpt>
      <trkpt lat="34.01551" lon="-115.728508">
        <ele>606.398438</ele>
        <time>2020-06-20T17:57:45.000Z</time>
      </trkpt>
      <trkpt lat="34.015374" lon="-115.728365">
        <ele>605.796875</ele>
        <time>2020-06-20T17:57:47.000Z</time>
      </trkpt>
      <trkpt lat="34.011552" lon="-115.724426">
        <ele>601.699219</ele>
        <time>2020-06-20T17:58:54.000Z</time>
      </trkpt>
      <trkpt lat="34.011532" lon="-115.724397">
        <ele>603.097656</ele>
        <time>2020-06-20T17:58:57.000Z</time>
      </trkpt>
      <trkpt lat="34.011494" lon="-115.724312">
        <ele>603.398438</ele>
        <time>2020-06-20T17:58:58.000Z</time>
      </trkpt>
      <trkpt lat="34.011483" lon="-115.724288">
        <ele>604.000000</ele>
        <time>2020-06-20T17:59:04.000Z</time>
      </trkpt>
      <trkpt lat="34.011429" lon="-115.724214">
        <ele>603.898438</ele>
        <time>2020-06-20T17:59:05.000Z</time>
      </trkpt>
      <trkpt lat="34.011405" lon="-115.7242">
        <ele>602.898438</ele>
        <time>2020-06-20T17:59:07.000Z</time>
      </trkpt>
      <trkpt lat="34.011341" lon="-115.72416">
        <ele>603.000000</ele>
        <time>2020-06-20T17:59:08.000Z</time>
      </trkpt>
      <trkpt lat="34.011307" lon="-115.724131">
        <ele>602.398438</ele>
        <time>2020-06-20T17:59:10.000Z</time>
      </trkpt>
      <trkpt lat="34.011007" lon="-115.723838">
        <ele>600.296875</ele>
        <time>2020-06-20T17:59:16.000Z</time>
      </trkpt>
      <trkpt lat="34.008833" lon="-115.721608">
        <ele>597.398438</ele>
        <time>2020-06-20T17:59:58.000Z</time>
      </trkpt>
      <trkpt lat="34.008572" lon="-115.721293">
        <ele>597.500000</ele>
        <time>2020-06-20T18:00:05.000Z</time>
      </trkpt>
      <trkpt lat="34.008176" lon="-115.720884">
        <ele>596.699219</ele>
        <time>2020-06-20T18:00:14.000Z</time>
      </trkpt>
      <trkpt lat="34.008033" lon="-115.720698">
        <ele>596.296875</ele>
        <time>2020-06-20T18:00:18.000Z</time>
      </trkpt>
      <trkpt lat="34.007971" lon="-115.720605">
        <ele>595.597656</ele>
        <time>2020-06-20T18:00:29.000Z</time>
      </trkpt>
      <trkpt lat="34.007964" lon="-115.720594">
        <ele>595.398438</ele>
        <time>2020-06-20T18:00:34.000Z</time>
      </trkpt>
      <trkpt lat="34.007835" lon="-115.720406">
        <ele>595.296875</ele>
        <time>2020-06-20T18:00:41.000Z</time>
      </trkpt>
      <trkpt lat="34.007824" lon="-115.720394">
        <ele>594.898438</ele>
        <time>2020-06-20T18:00:47.000Z</time>
      </trkpt>
      <trkpt lat="34.007775" lon="-115.720309">
        <ele>594.296875</ele>
        <time>2020-06-20T18:00:48.000Z</time>
      </trkpt>
      <trkpt lat="34.007767" lon="-115.72029">
        <ele>593.597656</ele>
        <time>2020-06-20T18:00:51.000Z</time>
      </trkpt>
      <trkpt lat="34.00772" lon="-115.720204">
        <ele>593.597656</ele>
        <time>2020-06-20T18:00:52.000Z</time>
      </trkpt>
      <trkpt lat="34.0077" lon="-115.720172">
        <ele>592.597656</ele>
        <time>2020-06-20T18:00:54.000Z</time>
      </trkpt>
      <trkpt lat="34.007654" lon="-115.720113">
        <ele>592.398438</ele>
        <time>2020-06-20T18:00:55.000Z</time>
      </trkpt>
      <trkpt lat="34.007459" lon="-115.719817">
        <ele>591.699219</ele>
        <time>2020-06-20T18:01:02.000Z</time>
      </trkpt>
      <trkpt lat="34.007302" lon="-115.719584">
        <ele>592.199219</ele>
        <time>2020-06-20T18:01:09.000Z</time>
      </trkpt>
      <trkpt lat="34.007276" lon="-115.719554">
        <ele>592.500000</ele>
        <time>2020-06-20T18:01:11.000Z</time>
      </trkpt>
      <trkpt lat="34.007223" lon="-115.719495">
        <ele>592.898438</ele>
        <time>2020-06-20T18:01:12.000Z</time>
      </trkpt>
      <trkpt lat="34.007192" lon="-115.719472">
        <ele>593.699219</ele>
        <time>2020-06-20T18:01:14.000Z</time>
      </trkpt>
      <trkpt lat="34.007133" lon="-115.719415">
        <ele>593.898438</ele>
        <time>2020-06-20T18:01:15.000Z</time>
      </trkpt>
      <trkpt lat="34.006398" lon="-115.718645">
        <ele>596.097656</ele>
        <time>2020-06-20T18:01:41.000Z</time>
      </trkpt>
      <trkpt lat="34.006398" lon="-115.718645">
        <ele>592.097656</ele>
        <time>2020-06-20T18:02:13.000Z</time>
      </trkpt>
      <trkpt lat="34.006328" lon="-115.718562">
        <ele>592.199219</ele>
        <time>2020-06-20T18:02:14.000Z</time>
      </trkpt>
      <trkpt lat="34.00623" lon="-115.718436">
        <ele>592.699219</ele>
        <time>2020-06-20T18:02:18.000Z</time>
      </trkpt>
      <trkpt lat="34.006206" lon="-115.718399">
        <ele>593.199219</ele>
        <time>2020-06-20T18:02:20.000Z</time>
      </trkpt>
      <trkpt lat="34.006166" lon="-115.718312">
        <ele>593.199219</ele>
        <time>2020-06-20T18:02:21.000Z</time>
      </trkpt>
      <trkpt lat="34.006109" lon="-115.7182">
        <ele>592.500000</ele>
        <time>2020-06-20T18:02:24.000Z</time>
      </trkpt>
      <trkpt lat="34.006086" lon="-115.718165">
        <ele>592.000000</ele>
        <time>2020-06-20T18:02:26.000Z</time>
      </trkpt>
      <trkpt lat="34.006002" lon="-115.71805">
        <ele>591.796875</ele>
        <time>2020-06-20T18:02:28.000Z</time>
      </trkpt>
      <trkpt lat="34.005922" lon="-115.717943">
        <ele>591.500000</ele>
        <time>2020-06-20T18:02:31.000Z</time>
      </trkpt>
      <trkpt lat="34.005901" lon="-115.717911">
        <ele>591.000000</ele>
        <time>2020-06-20T18:02:33.000Z</time>
      </trkpt>
      <trkpt lat="34.005866" lon="-115.717847">
        <ele>590.796875</ele>
        <time>2020-06-20T18:02:34.000Z</time>
      </trkpt>
      <trkpt lat="34.005851" lon="-115.717815">
        <ele>590.199219</ele>
        <time>2020-06-20T18:02:36.000Z</time>
      </trkpt>
      <trkpt lat="34.005823" lon="-115.717745">
        <ele>589.898438</ele>
        <time>2020-06-20T18:02:37.000Z</time>
      </trkpt>
      <trkpt lat="34.005814" lon="-115.717706">
        <ele>589.500000</ele>
        <time>2020-06-20T18:02:39.000Z</time>
      </trkpt>
      <trkpt lat="34.005718" lon="-115.717207">
        <ele>591.097656</ele>
        <time>2020-06-20T18:03:05.000Z</time>
      </trkpt>
      <trkpt lat="34.005717" lon="-115.717207">
        <ele>588.796875</ele>
        <time>2020-06-20T18:09:52.000Z</time>
      </trkpt>
      <trkpt lat="34.005672" lon="-115.717096">
        <ele>589.296875</ele>
        <time>2020-06-20T18:09:53.000Z</time>
      </trkpt>
      <trkpt lat="34.005662" lon="-115.717056">
        <ele>590.199219</ele>
        <time>2020-06-20T18:09:55.000Z</time>
      </trkpt>
      <trkpt lat="34.00556" lon="-115.716629">
        <ele>593.097656</ele>
        <time>2020-06-20T18:10:03.000Z</time>
      </trkpt>
      <trkpt lat="34.00534" lon="-115.715297">
        <ele>592.199219</ele>
        <time>2020-06-20T18:10:26.000Z</time>
      </trkpt>
      <trkpt lat="34.005325" lon="-115.715255">
        <ele>592.097656</ele>
        <time>2020-06-20T18:10:28.000Z</time>
      </trkpt>
      <trkpt lat="34.005282" lon="-115.71514">
        <ele>592.000000</ele>
        <time>2020-06-20T18:10:30.000Z</time>
      </trkpt>
      <trkpt lat="34.005267" lon="-115.715111">
        <ele>591.699219</ele>
        <time>2020-06-20T18:10:32.000Z</time>
      </trkpt>
      <trkpt lat="34.00523" lon="-115.715045">
        <ele>592.296875</ele>
        <time>2020-06-20T18:10:33.000Z</time>
      </trkpt>
      <trkpt lat="34.005208" lon="-115.715003">
        <ele>591.500000</ele>
        <time>2020-06-20T18:10:35.000Z</time>
      </trkpt>
      <trkpt lat="34.005145" lon="-115.714931">
        <ele>591.398438</ele>
        <time>2020-06-20T18:10:36.000Z</time>
      </trkpt>
      <trkpt lat="34.005107" lon="-115.714899">
        <ele>591.296875</ele>
        <time>2020-06-20T18:10:37.000Z</time>
      </trkpt>
      <trkpt lat="34.004953" lon="-115.714753">
        <ele>590.796875</ele>
        <time>2020-06-20T18:10:41.000Z</time>
      </trkpt>
      <trkpt lat="34.00488" lon="-115.714661">
        <ele>591.398438</ele>
        <time>2020-06-20T18:10:43.000Z</time>
      </trkpt>
      <trkpt lat="34.004811" lon="-115.714562">
        <ele>591.296875</ele>
        <time>2020-06-20T18:10:45.000Z</time>
      </trkpt>
      <trkpt lat="34.004781" lon="-115.714506">
        <ele>591.597656</ele>
        <time>2020-06-20T18:10:46.000Z</time>
      </trkpt>
      <trkpt lat="34.004754" lon="-115.714448">
        <ele>592.097656</ele>
        <time>2020-06-20T18:10:47.000Z</time>
      </trkpt>
      <trkpt lat="34.004731" lon="-115.714387">
        <ele>592.199219</ele>
        <time>2020-06-20T18:10:48.000Z</time>
      </trkpt>
      <trkpt lat="34.00471" lon="-115.714324">
        <ele>592.097656</ele>
        <time>2020-06-20T18:10:49.000Z</time>
      </trkpt>
      <trkpt lat="34.004692" lon="-115.714254">
        <ele>592.199219</ele>
        <time>2020-06-20T18:10:50.000Z</time>
      </trkpt>
      <trkpt lat="34.004678" lon="-115.714178">
        <ele>592.398438</ele>
        <time>2020-06-20T18:10:51.000Z</time>
      </trkpt>
      <trkpt lat="34.004667" lon="-115.7141">
        <ele>592.097656</ele>
        <time>2020-06-20T18:10:52.000Z</time>
      </trkpt>
      <trkpt lat="34.004639" lon="-115.713808">
        <ele>591.000000</ele>
        <time>2020-06-20T18:10:56.000Z</time>
      </trkpt>
      <trkpt lat="34.004628" lon="-115.713156">
        <ele>591.199219</ele>
        <time>2020-06-20T18:11:05.000Z</time>
      </trkpt>
      <trkpt lat="34.004655" lon="-115.712438">
        <ele>591.500000</ele>
        <time>2020-06-20T18:11:17.000Z</time>
      </trkpt>
      <trkpt lat="34.004664" lon="-115.712383">
        <ele>591.296875</ele>
        <time>2020-06-20T18:11:18.000Z</time>
      </trkpt>
      <trkpt lat="34.004677" lon="-115.71233">
        <ele>591.296875</ele>
        <time>2020-06-20T18:11:20.000Z</time>
      </trkpt>
      <trkpt lat="34.004703" lon="-115.712267">
        <ele>590.398438</ele>
        <time>2020-06-20T18:11:40.000Z</time>
      </trkpt>
      <trkpt lat="34.00471" lon="-115.712229">
        <ele>591.699219</ele>
        <time>2020-06-20T18:14:27.000Z</time>
      </trkpt>
      <trkpt lat="34.004746" lon="-115.71216">
        <ele>592.199219</ele>
        <time>2020-06-20T18:14:29.000Z</time>
      </trkpt>
      <trkpt lat="34.004764" lon="-115.71212">
        <ele>592.898438</ele>
        <time>2020-06-20T18:14:32.000Z</time>
      </trkpt>
      <trkpt lat="34.004786" lon="-115.712062">
        <ele>592.898438</ele>
        <time>2020-06-20T18:14:35.000Z</time>
      </trkpt>
      <trkpt lat="34.0048" lon="-115.71201">
        <ele>592.398438</ele>
        <time>2020-06-20T18:14:39.000Z</time>
      </trkpt>
      <trkpt lat="34.0048" lon="-115.711935">
        <ele>592.699219</ele>
        <time>2020-06-20T18:14:41.000Z</time>
      </trkpt>
      <trkpt lat="34.004786" lon="-115.711895">
        <ele>592.898438</ele>
        <time>2020-06-20T18:14:44.000Z</time>
      </trkpt>
      <trkpt lat="34.004765" lon="-115.711833">
        <ele>593.199219</ele>
        <time>2020-06-20T18:14:46.000Z</time>
      </trkpt>
      <trkpt lat="34.004743" lon="-115.71179">
        <ele>593.398438</ele>
        <time>2020-06-20T18:14:48.000Z</time>
      </trkpt>
      <trkpt lat="34.004687" lon="-115.711679">
        <ele>593.699219</ele>
        <time>2020-06-20T18:14:51.000Z</time>
      </trkpt>
      <trkpt lat="34.004679" lon="-115.711645">
        <ele>593.000000</ele>
        <time>2020-06-20T18:14:54.000Z</time>
      </trkpt>
      <trkpt lat="34.004674" lon="-115.711539">
        <ele>592.796875</ele>
        <time>2020-06-20T18:14:55.000Z</time>
      </trkpt>
      <trkpt lat="34.004658" lon="-115.711175">
        <ele>591.296875</ele>
        <time>2020-06-20T18:15:04.000Z</time>
      </trkpt>
      <trkpt lat="34.004651" lon="-115.711135">
        <ele>591.398438</ele>
        <time>2020-06-20T18:15:06.000Z</time>
      </trkpt>
      <trkpt lat="34.004625" lon="-115.711055">
        <ele>591.199219</ele>
        <time>2020-06-20T18:15:07.000Z</time>
      </trkpt>
      <trkpt lat="34.004572" lon="-115.710925">
        <ele>590.796875</ele>
        <time>2020-06-20T18:15:10.000Z</time>
      </trkpt>
      <trkpt lat="34.004499" lon="-115.710788">
        <ele>591.296875</ele>
        <time>2020-06-20T18:15:13.000Z</time>
      </trkpt>
      <trkpt lat="34.004233" lon="-115.710332">
        <ele>589.500000</ele>
        <time>2020-06-20T18:15:23.000Z</time>
      </trkpt>
      <trkpt lat="34.004211" lon="-115.710277">
        <ele>589.296875</ele>
        <time>2020-06-20T18:15:24.000Z</time>
      </trkpt>
      <trkpt lat="34.004195" lon="-115.710219">
        <ele>589.097656</ele>
        <time>2020-06-20T18:15:25.000Z</time>
      </trkpt>
      <trkpt lat="34.004183" lon="-115.710161">
        <ele>588.898438</ele>
        <time>2020-06-20T18:15:26.000Z</time>
      </trkpt>
      <trkpt lat="34.004176" lon="-115.710105">
        <ele>589.097656</ele>
        <time>2020-06-20T18:15:27.000Z</time>
      </trkpt>
      <trkpt lat="34.004173" lon="-115.710049">
        <ele>589.500000</ele>
        <time>2020-06-20T18:15:28.000Z</time>
      </trkpt>
      <trkpt lat="34.004174" lon="-115.709992">
        <ele>589.597656</ele>
        <time>2020-06-20T18:15:29.000Z</time>
      </trkpt>
      <trkpt lat="34.004178" lon="-115.709939">
        <ele>589.296875</ele>
        <time>2020-06-20T18:15:31.000Z</time>
      </trkpt>
      <trkpt lat="34.004194" lon="-115.709833">
        <ele>589.097656</ele>
        <time>2020-06-20T18:15:32.000Z</time>
      </trkpt>
      <trkpt lat="34.004197" lon="-115.709776">
        <ele>588.699219</ele>
        <time>2020-06-20T18:15:33.000Z</time>
      </trkpt>
      <trkpt lat="34.004193" lon="-115.709718">
        <ele>588.597656</ele>
        <time>2020-06-20T18:15:34.000Z</time>
      </trkpt>
      <trkpt lat="34.004181" lon="-115.70966">
        <ele>588.296875</ele>
        <time>2020-06-20T18:15:35.000Z</time>
      </trkpt>
      <trkpt lat="34.004164" lon="-115.709605">
        <ele>588.296875</ele>
        <time>2020-06-20T18:15:36.000Z</time>
      </trkpt>
      <trkpt lat="34.004113" lon="-115.709454">
        <ele>587.699219</ele>
        <time>2020-06-20T18:15:39.000Z</time>
      </trkpt>
      <trkpt lat="34.004096" lon="-115.709412">
        <ele>587.597656</ele>
        <time>2020-06-20T18:15:41.000Z</time>
      </trkpt>
      <trkpt lat="34.004057" lon="-115.709342">
        <ele>587.597656</ele>
        <time>2020-06-20T18:15:42.000Z</time>
      </trkpt>
      <trkpt lat="34.004036" lon="-115.709314">
        <ele>586.699219</ele>
        <time>2020-06-20T18:15:46.000Z</time>
      </trkpt>
      <trkpt lat="34.003981" lon="-115.709264">
        <ele>587.398438</ele>
        <time>2020-06-20T18:15:48.000Z</time>
      </trkpt>
      <trkpt lat="34.003905" lon="-115.709192">
        <ele>587.597656</ele>
        <time>2020-06-20T18:15:51.000Z</time>
      </trkpt>
      <trkpt lat="34.003884" lon="-115.709162">
        <ele>587.796875</ele>
        <time>2020-06-20T18:15:54.000Z</time>
      </trkpt>
      <trkpt lat="34.003839" lon="-115.709075">
        <ele>587.796875</ele>
        <time>2020-06-20T18:15:55.000Z</time>
      </trkpt>
      <trkpt lat="34.00383" lon="-115.709043">
        <ele>587.097656</ele>
        <time>2020-06-20T18:15:58.000Z</time>
      </trkpt>
      <trkpt lat="34.003751" lon="-115.70876">
        <ele>588.699219</ele>
        <time>2020-06-20T18:16:06.000Z</time>
      </trkpt>
      <trkpt lat="34.003741" lon="-115.708731">
        <ele>589.898438</ele>
        <time>2020-06-20T18:16:09.000Z</time>
      </trkpt>
      <trkpt lat="34.003714" lon="-115.708634">
        <ele>590.097656</ele>
        <time>2020-06-20T18:16:10.000Z</time>
      </trkpt>
      <trkpt lat="34.00368" lon="-115.708515">
        <ele>591.898438</ele>
        <time>2020-06-20T18:16:14.000Z</time>
      </trkpt>
      <trkpt lat="34.003664" lon="-115.708478">
        <ele>592.296875</ele>
        <time>2020-06-20T18:16:16.000Z</time>
      </trkpt>
      <trkpt lat="34.003586" lon="-115.708312">
        <ele>592.597656</ele>
        <time>2020-06-20T18:16:19.000Z</time>
      </trkpt>
      <trkpt lat="34.003561" lon="-115.708271">
        <ele>592.597656</ele>
        <time>2020-06-20T18:16:21.000Z</time>
      </trkpt>
      <trkpt lat="34.003507" lon="-115.708197">
        <ele>592.398438</ele>
        <time>2020-06-20T18:16:22.000Z</time>
      </trkpt>
      <trkpt lat="34.003274" lon="-115.707879">
        <ele>591.796875</ele>
        <time>2020-06-20T18:16:32.000Z</time>
      </trkpt>
      <trkpt lat="34.003259" lon="-115.707849">
        <ele>592.500000</ele>
        <time>2020-06-20T18:16:35.000Z</time>
      </trkpt>
      <trkpt lat="34.00323" lon="-115.707756">
        <ele>592.796875</ele>
        <time>2020-06-20T18:16:36.000Z</time>
      </trkpt>
      <trkpt lat="34.003197" lon="-115.707651">
        <ele>594.500000</ele>
        <time>2020-06-20T18:16:40.000Z</time>
      </trkpt>
      <trkpt lat="34.003182" lon="-115.707627">
        <ele>595.597656</ele>
        <time>2020-06-20T18:16:43.000Z</time>
      </trkpt>
      <trkpt lat="34.003114" lon="-115.707555">
        <ele>596.000000</ele>
        <time>2020-06-20T18:16:44.000Z</time>
      </trkpt>
      <trkpt lat="34.003093" lon="-115.707538">
        <ele>598.097656</ele>
        <time>2020-06-20T18:16:54.000Z</time>
      </trkpt>
      <trkpt lat="34.003032" lon="-115.707509">
        <ele>598.898438</ele>
        <time>2020-06-20T18:18:21.000Z</time>
      </trkpt>
      <trkpt lat="34.003002" lon="-115.707499">
        <ele>599.699219</ele>
        <time>2020-06-20T18:18:27.000Z</time>
      </trkpt>
      <trkpt lat="34.002946" lon="-115.707469">
        <ele>599.796875</ele>
        <time>2020-06-20T18:18:30.000Z</time>
      </trkpt>
      <trkpt lat="34.002914" lon="-115.707457">
        <ele>600.500000</ele>
        <time>2020-06-20T18:18:35.000Z</time>
      </trkpt>
      <trkpt lat="34.002855" lon="-115.707475">
        <ele>601.296875</ele>
        <time>2020-06-20T18:18:38.000Z</time>
      </trkpt>
      <trkpt lat="34.002827" lon="-115.707503">
        <ele>601.699219</ele>
        <time>2020-06-20T18:18:43.000Z</time>
      </trkpt>
      <trkpt lat="34.002779" lon="-115.707534">
        <ele>602.398438</ele>
        <time>2020-06-20T18:18:46.000Z</time>
      </trkpt>
      <trkpt lat="34.002742" lon="-115.707539">
        <ele>602.796875</ele>
        <time>2020-06-20T18:18:50.000Z</time>
      </trkpt>
      <trkpt lat="34.002683" lon="-115.707535">
        <ele>602.097656</ele>
        <time>2020-06-20T18:18:53.000Z</time>
      </trkpt>
      <trkpt lat="34.002639" lon="-115.707529">
        <ele>602.398438</ele>
        <time>2020-06-20T18:18:57.000Z</time>
      </trkpt>
      <trkpt lat="34.002582" lon="-115.707509">
        <ele>603.000000</ele>
        <time>2020-06-20T18:18:59.000Z</time>
      </trkpt>
      <trkpt lat="34.00255" lon="-115.7075">
        <ele>603.699219</ele>
        <time>2020-06-20T18:19:03.000Z</time>
      </trkpt>
      <trkpt lat="34.002487" lon="-115.707465">
        <ele>604.398438</ele>
        <time>2020-06-20T18:19:05.000Z</time>
      </trkpt>
      <trkpt lat="34.002405" lon="-115.707418">
        <ele>605.097656</ele>
        <time>2020-06-20T18:19:09.000Z</time>
      </trkpt>
      <trkpt lat="34.00239" lon="-115.707405">
        <ele>605.398438</ele>
        <time>2020-06-20T18:19:13.000Z</time>
      </trkpt>
      <trkpt lat="34.002283" lon="-115.707315">
        <ele>605.500000</ele>
        <time>2020-06-20T18:19:16.000Z</time>
      </trkpt>
      <trkpt lat="34.002262" lon="-115.707302">
        <ele>604.597656</ele>
        <time>2020-06-20T18:19:23.000Z</time>
      </trkpt>
      <trkpt lat="34.00199" lon="-115.707109">
        <ele>604.699219</ele>
        <time>2020-06-20T18:19:45.000Z</time>
      </trkpt>
      <trkpt lat="34.001965" lon="-115.707083">
        <ele>604.296875</ele>
        <time>2020-06-20T18:19:47.000Z</time>
      </trkpt>
      <trkpt lat="34.001919" lon="-115.707029">
        <ele>604.199219</ele>
        <time>2020-06-20T18:19:48.000Z</time>
      </trkpt>
      <trkpt lat="34.001898" lon="-115.706997">
        <ele>604.000000</ele>
        <time>2020-06-20T18:19:50.000Z</time>
      </trkpt>
      <trkpt lat="34.001835" lon="-115.706888">
        <ele>603.699219</ele>
        <time>2020-06-20T18:19:52.000Z</time>
      </trkpt>
      <trkpt lat="34.001784" lon="-115.70678">
        <ele>603.699219</ele>
        <time>2020-06-20T18:19:55.000Z</time>
      </trkpt>
      <trkpt lat="34.001664" lon="-115.706521">
        <ele>601.296875</ele>
        <time>2020-06-20T18:20:06.000Z</time>
      </trkpt>
      <trkpt lat="34.00165" lon="-115.7065">
        <ele>600.699219</ele>
        <time>2020-06-20T18:20:11.000Z</time>
      </trkpt>
      <trkpt lat="34.0016" lon="-115.706426">
        <ele>600.199219</ele>
        <time>2020-06-20T18:20:12.000Z</time>
      </trkpt>
      <trkpt lat="34.001585" lon="-115.706413">
        <ele>598.898438</ele>
        <time>2020-06-20T18:20:15.000Z</time>
      </trkpt>
      <trkpt lat="34.001361" lon="-115.706231">
        <ele>595.398438</ele>
        <time>2020-06-20T18:20:23.000Z</time>
      </trkpt>
      <trkpt lat="34.001347" lon="-115.706214">
        <ele>594.199219</ele>
        <time>2020-06-20T18:20:27.000Z</time>
      </trkpt>
      <trkpt lat="34.001299" lon="-115.706132">
        <ele>593.796875</ele>
        <time>2020-06-20T18:20:28.000Z</time>
      </trkpt>
      <trkpt lat="34.001287" lon="-115.706106">
        <ele>593.296875</ele>
        <time>2020-06-20T18:20:31.000Z</time>
      </trkpt>
      <trkpt lat="34.001254" lon="-115.706021">
        <ele>593.000000</ele>
        <time>2020-06-20T18:20:32.000Z</time>
      </trkpt>
      <trkpt lat="34.001246" lon="-115.705993">
        <ele>592.597656</ele>
        <time>2020-06-20T18:20:36.000Z</time>
      </trkpt>
      <trkpt lat="34.001197" lon="-115.705773">
        <ele>591.699219</ele>
        <time>2020-06-20T18:20:41.000Z</time>
      </trkpt>
      <trkpt lat="34.001162" lon="-115.705597">
        <ele>590.199219</ele>
        <time>2020-06-20T18:20:49.000Z</time>
      </trkpt>
      <trkpt lat="34.001123" lon="-115.705483">
        <ele>590.000000</ele>
        <time>2020-06-20T18:20:53.000Z</time>
      </trkpt>
      <trkpt lat="34.001117" lon="-115.705451">
        <ele>589.000000</ele>
        <time>2020-06-20T18:20:56.000Z</time>
      </trkpt>
      <trkpt lat="34.001058" lon="-115.705089">
        <ele>587.199219</ele>
        <time>2020-06-20T18:21:05.000Z</time>
      </trkpt>
      <trkpt lat="34.001057" lon="-115.705055">
        <ele>586.000000</ele>
        <time>2020-06-20T18:21:08.000Z</time>
      </trkpt>
      <trkpt lat="34.001059" lon="-115.704968">
        <ele>585.699219</ele>
        <time>2020-06-20T18:21:09.000Z</time>
      </trkpt>
      <trkpt lat="34.001063" lon="-115.704943">
        <ele>584.796875</ele>
        <time>2020-06-20T18:21:12.000Z</time>
      </trkpt>
      <trkpt lat="34.001074" lon="-115.704852">
        <ele>584.898438</ele>
        <time>2020-06-20T18:21:13.000Z</time>
      </trkpt>
      <trkpt lat="34.001072" lon="-115.704823">
        <ele>585.500000</ele>
        <time>2020-06-20T18:21:16.000Z</time>
      </trkpt>
      <trkpt lat="34.001047" lon="-115.704731">
        <ele>586.199219</ele>
        <time>2020-06-20T18:21:17.000Z</time>
      </trkpt>
      <trkpt lat="34.001021" lon="-115.704614">
        <ele>586.898438</ele>
        <time>2020-06-20T18:21:20.000Z</time>
      </trkpt>
      <trkpt lat="34.001001" lon="-115.704488">
        <ele>586.097656</ele>
        <time>2020-06-20T18:21:23.000Z</time>
      </trkpt>
      <trkpt lat="34.000998" lon="-115.704441">
        <ele>585.398438</ele>
        <time>2020-06-20T18:21:25.000Z</time>
      </trkpt>
      <trkpt lat="34.000994" lon="-115.70435">
        <ele>585.199219</ele>
        <time>2020-06-20T18:21:26.000Z</time>
      </trkpt>
      <trkpt lat="34.000999" lon="-115.703961">
        <ele>586.097656</ele>
        <time>2020-06-20T18:21:35.000Z</time>
      </trkpt>
      <trkpt lat="34.001056" lon="-115.703433">
        <ele>585.097656</ele>
        <time>2020-06-20T18:21:45.000Z</time>
      </trkpt>
      <trkpt lat="34.00111" lon="-115.703138">
        <ele>583.500000</ele>
        <time>2020-06-20T18:21:52.000Z</time>
      </trkpt>
      <trkpt lat="34.001149" lon="-115.702848">
        <ele>586.199219</ele>
        <time>2020-06-20T18:22:00.000Z</time>
      </trkpt>
      <trkpt lat="34.00118" lon="-115.702714">
        <ele>587.199219</ele>
        <time>2020-06-20T18:22:03.000Z</time>
      </trkpt>
      <trkpt lat="34.001186" lon="-115.702669">
        <ele>589.000000</ele>
        <time>2020-06-20T18:22:05.000Z</time>
      </trkpt>
      <trkpt lat="34.001183" lon="-115.702573">
        <ele>588.898438</ele>
        <time>2020-06-20T18:22:06.000Z</time>
      </trkpt>
      <trkpt lat="34.001174" lon="-115.702527">
        <ele>589.000000</ele>
        <time>2020-06-20T18:22:08.000Z</time>
      </trkpt>
      <trkpt lat="34.001144" lon="-115.702441">
        <ele>589.199219</ele>
        <time>2020-06-20T18:22:09.000Z</time>
      </trkpt>
      <trkpt lat="34.001127" lon="-115.7024">
        <ele>589.597656</ele>
        <time>2020-06-20T18:22:11.000Z</time>
      </trkpt>
      <trkpt lat="34.001091" lon="-115.702327">
        <ele>589.699219</ele>
        <time>2020-06-20T18:22:12.000Z</time>
      </trkpt>
      <trkpt lat="34.001071" lon="-115.702296">
        <ele>590.500000</ele>
        <time>2020-06-20T18:22:14.000Z</time>
      </trkpt>
      <trkpt lat="34.001024" lon="-115.702232">
        <ele>590.898438</ele>
        <time>2020-06-20T18:22:15.000Z</time>
      </trkpt>
      <trkpt lat="34.000998" lon="-115.702203">
        <ele>591.296875</ele>
        <time>2020-06-20T18:22:17.000Z</time>
      </trkpt>
      <trkpt lat="34.000936" lon="-115.702151">
        <ele>591.500000</ele>
        <time>2020-06-20T18:22:18.000Z</time>
      </trkpt>
      <trkpt lat="34.0009" lon="-115.702128">
        <ele>591.796875</ele>
        <time>2020-06-20T18:22:20.000Z</time>
      </trkpt>
      <trkpt lat="34.000701" lon="-115.70202">
        <ele>591.000000</ele>
        <time>2020-06-20T18:22:24.000Z</time>
      </trkpt>
      <trkpt lat="34.000378" lon="-115.701886">
        <ele>592.699219</ele>
        <time>2020-06-20T18:22:34.000Z</time>
      </trkpt>
      <trkpt lat="34.000289" lon="-115.701862">
        <ele>593.296875</ele>
        <time>2020-06-20T18:22:37.000Z</time>
      </trkpt>
      <trkpt lat="34.000255" lon="-115.701857">
        <ele>593.199219</ele>
        <time>2020-06-20T18:22:39.000Z</time>
      </trkpt>
      <trkpt lat="34.000192" lon="-115.701858">
        <ele>592.898438</ele>
        <time>2020-06-20T18:22:40.000Z</time>
      </trkpt>
      <trkpt lat="34.000165" lon="-115.701863">
        <ele>592.898438</ele>
        <time>2020-06-20T18:22:43.000Z</time>
      </trkpt>
      <trkpt lat="34.000097" lon="-115.701876">
        <ele>593.097656</ele>
        <time>2020-06-20T18:22:44.000Z</time>
      </trkpt>
      <trkpt lat="34.000072" lon="-115.701885">
        <ele>594.199219</ele>
        <time>2020-06-20T18:22:47.000Z</time>
      </trkpt>
      <trkpt lat="34.000004" lon="-115.70193">
        <ele>594.699219</ele>
        <time>2020-06-20T18:22:48.000Z</time>
      </trkpt>
      <trkpt lat="33.999983" lon="-115.701948">
        <ele>596.398438</ele>
        <time>2020-06-20T18:22:51.000Z</time>
      </trkpt>
      <trkpt lat="33.999847" lon="-115.70206">
        <ele>597.796875</ele>
        <time>2020-06-20T18:22:55.000Z</time>
      </trkpt>
      <trkpt lat="33.999823" lon="-115.702078">
        <ele>598.000000</ele>
        <time>2020-06-20T18:22:58.000Z</time>
      </trkpt>
      <trkpt lat="33.999745" lon="-115.702115">
        <ele>597.597656</ele>
        <time>2020-06-20T18:22:59.000Z</time>
      </trkpt>
      <trkpt lat="33.999716" lon="-115.702121">
        <ele>597.097656</ele>
        <time>2020-06-20T18:23:01.000Z</time>
      </trkpt>
      <trkpt lat="33.999649" lon="-115.702122">
        <ele>596.699219</ele>
        <time>2020-06-20T18:23:02.000Z</time>
      </trkpt>
      <trkpt lat="33.999617" lon="-115.702117">
        <ele>596.199219</ele>
        <time>2020-06-20T18:23:05.000Z</time>
      </trkpt>
      <trkpt lat="33.999543" lon="-115.702093">
        <ele>596.000000</ele>
        <time>2020-06-20T18:23:06.000Z</time>
      </trkpt>
      <trkpt lat="33.998943" lon="-115.701869">
        <ele>588.796875</ele>
        <time>2020-06-20T18:23:30.000Z</time>
      </trkpt>
      <trkpt lat="33.99893" lon="-115.701862">
        <ele>587.199219</ele>
        <time>2020-06-20T18:23:35.000Z</time>
      </trkpt>
      <trkpt lat="33.998845" lon="-115.701835">
        <ele>586.898438</ele>
        <time>2020-06-20T18:23:36.000Z</time>
      </trkpt>
      <trkpt lat="33.998512" lon="-115.701726">
        <ele>585.597656</ele>
        <time>2020-06-20T18:23:48.000Z</time>
      </trkpt>
      <trkpt lat="33.998492" lon="-115.701718">
        <ele>585.000000</ele>
        <time>2020-06-20T18:23:51.000Z</time>
      </trkpt>
      <trkpt lat="33.998392" lon="-115.701674">
        <ele>585.097656</ele>
        <time>2020-06-20T18:23:53.000Z</time>
      </trkpt>
      <trkpt lat="33.99837" lon="-115.701661">
        <ele>584.398438</ele>
        <time>2020-06-20T18:23:56.000Z</time>
      </trkpt>
      <trkpt lat="33.998304" lon="-115.701629">
        <ele>584.097656</ele>
        <time>2020-06-20T18:23:57.000Z</time>
      </trkpt>
      <trkpt lat="33.998285" lon="-115.701617">
        <ele>584.000000</ele>
        <time>2020-06-20T18:24:02.000Z</time>
      </trkpt>
      <trkpt lat="33.998234" lon="-115.701559">
        <ele>583.898438</ele>
        <time>2020-06-20T18:24:04.000Z</time>
      </trkpt>
      <trkpt lat="33.998219" lon="-115.701535">
        <ele>583.296875</ele>
        <time>2020-06-20T18:24:09.000Z</time>
      </trkpt>
      <trkpt lat="33.998167" lon="-115.701474">
        <ele>583.398438</ele>
        <time>2020-06-20T18:24:10.000Z</time>
      </trkpt>
      <trkpt lat="33.998152" lon="-115.70146">
        <ele>583.597656</ele>
        <time>2020-06-20T18:24:14.000Z</time>
      </trkpt>
      <trkpt lat="33.997974" lon="-115.701311">
        <ele>584.597656</ele>
        <time>2020-06-20T18:24:20.000Z</time>
      </trkpt>
      <trkpt lat="33.997955" lon="-115.701286">
        <ele>584.597656</ele>
        <time>2020-06-20T18:24:23.000Z</time>
      </trkpt>
      <trkpt lat="33.997908" lon="-115.701203">
        <ele>584.699219</ele>
        <time>2020-06-20T18:24:24.000Z</time>
      </trkpt>
      <trkpt lat="33.997856" lon="-115.701096">
        <ele>585.097656</ele>
        <time>2020-06-20T18:24:30.000Z</time>
      </trkpt>
      <trkpt lat="33.997856" lon="-115.701096">
        <ele>586.000000</ele>
        <time>2020-06-20T18:26:46.000Z</time>
      </trkpt>
      <trkpt lat="33.997932" lon="-115.701014">
        <ele>586.097656</ele>
        <time>2020-06-20T18:26:47.000Z</time>
      </trkpt>
      <trkpt lat="33.997943" lon="-115.700985">
        <ele>586.199219</ele>
        <time>2020-06-20T18:26:50.000Z</time>
      </trkpt>
      <trkpt lat="33.997953" lon="-115.700876">
        <ele>586.398438</ele>
        <time>2020-06-20T18:26:51.000Z</time>
      </trkpt>
      <trkpt lat="33.997953" lon="-115.700834">
        <ele>586.796875</ele>
        <time>2020-06-20T18:26:53.000Z</time>
      </trkpt>
      <trkpt lat="33.99795" lon="-115.700744">
        <ele>586.898438</ele>
        <time>2020-06-20T18:26:54.000Z</time>
      </trkpt>
      <trkpt lat="33.997929" lon="-115.70057">
        <ele>588.199219</ele>
        <time>2020-06-20T18:26:58.000Z</time>
      </trkpt>
      <trkpt lat="33.997864" lon="-115.700232">
        <ele>588.398438</ele>
        <time>2020-06-20T18:27:06.000Z</time>
      </trkpt>
      <trkpt lat="33.997858" lon="-115.700192">
        <ele>588.398438</ele>
        <time>2020-06-20T18:27:08.000Z</time>
      </trkpt>
      <trkpt lat="33.997853" lon="-115.700109">
        <ele>588.398438</ele>
        <time>2020-06-20T18:27:09.000Z</time>
      </trkpt>
      <trkpt lat="33.997853" lon="-115.700065">
        <ele>588.398438</ele>
        <time>2020-06-20T18:27:11.000Z</time>
      </trkpt>
      <trkpt lat="33.997863" lon="-115.699973">
        <ele>588.398438</ele>
        <time>2020-06-20T18:27:12.000Z</time>
      </trkpt>
      <trkpt lat="33.997872" lon="-115.699929">
        <ele>588.500000</ele>
        <time>2020-06-20T18:27:14.000Z</time>
      </trkpt>
      <trkpt lat="33.997901" lon="-115.699845">
        <ele>588.296875</ele>
        <time>2020-06-20T18:27:15.000Z</time>
      </trkpt>
      <trkpt lat="33.997918" lon="-115.699807">
        <ele>588.199219</ele>
        <time>2020-06-20T18:27:17.000Z</time>
      </trkpt>
      <trkpt lat="33.997953" lon="-115.699739">
        <ele>588.296875</ele>
        <time>2020-06-20T18:27:18.000Z</time>
      </trkpt>
      <trkpt lat="33.997975" lon="-115.699706">
        <ele>588.597656</ele>
        <time>2020-06-20T18:27:20.000Z</time>
      </trkpt>
      <trkpt lat="33.998026" lon="-115.699648">
        <ele>588.796875</ele>
        <time>2020-06-20T18:27:21.000Z</time>
      </trkpt>
      <trkpt lat="33.998054" lon="-115.699617">
        <ele>589.296875</ele>
        <time>2020-06-20T18:27:23.000Z</time>
      </trkpt>
      <trkpt lat="33.998102" lon="-115.699544">
        <ele>589.597656</ele>
        <time>2020-06-20T18:27:24.000Z</time>
      </trkpt>
      <trkpt lat="33.998119" lon="-115.699502">
        <ele>590.199219</ele>
        <time>2020-06-20T18:27:26.000Z</time>
      </trkpt>
      <trkpt lat="33.998142" lon="-115.699406">
        <ele>590.597656</ele>
        <time>2020-06-20T18:27:27.000Z</time>
      </trkpt>
      <trkpt lat="33.998149" lon="-115.699359">
        <ele>591.296875</ele>
        <time>2020-06-20T18:27:29.000Z</time>
      </trkpt>
      <trkpt lat="33.998166" lon="-115.699205">
        <ele>593.199219</ele>
        <time>2020-06-20T18:27:41.000Z</time>
      </trkpt>
      <trkpt lat="33.998166" lon="-115.699205">
        <ele>593.199219</ele>
        <time>2020-06-20T18:27:41.000Z</time>
      </trkpt>
    </trkseg>
    <trkseg>
      <trkpt lat="33.998133" lon="-115.699491">
        <ele>588.597656</ele>
        <time>2020-06-20T18:41:21.000Z</time>
      </trkpt>
      <trkpt lat="33.998088" lon="-115.699587">
        <ele>589.398438</ele>
        <time>2020-06-20T18:41:39.000Z</time>
      </trkpt>
      <trkpt lat="33.998074" lon="-115.699608">
        <ele>588.898438</ele>
        <time>2020-06-20T18:41:42.000Z</time>
      </trkpt>
      <trkpt lat="33.998022" lon="-115.69967">
        <ele>588.796875</ele>
        <time>2020-06-20T18:41:43.000Z</time>
      </trkpt>
      <trkpt lat="33.998004" lon="-115.699689">
        <ele>588.296875</ele>
        <time>2020-06-20T18:41:46.000Z</time>
      </trkpt>
      <trkpt lat="33.997951" lon="-115.699763">
        <ele>588.097656</ele>
        <time>2020-06-20T18:41:47.000Z</time>
      </trkpt>
      <trkpt lat="33.997936" lon="-115.699793">
        <ele>587.097656</ele>
        <time>2020-06-20T18:41:50.000Z</time>
      </trkpt>
      <trkpt lat="33.9979" lon="-115.699891">
        <ele>587.199219</ele>
        <time>2020-06-20T18:41:51.000Z</time>
      </trkpt>
      <trkpt lat="33.99789" lon="-115.699924">
        <ele>586.699219</ele>
        <time>2020-06-20T18:41:54.000Z</time>
      </trkpt>
      <trkpt lat="33.997872" lon="-115.700019">
        <ele>586.699219</ele>
        <time>2020-06-20T18:41:55.000Z</time>
      </trkpt>
      <trkpt lat="33.997869" lon="-115.700048">
        <ele>587.097656</ele>
        <time>2020-06-20T18:41:58.000Z</time>
      </trkpt>
      <trkpt lat="33.997867" lon="-115.70014">
        <ele>587.296875</ele>
        <time>2020-06-20T18:41:59.000Z</time>
      </trkpt>
      <trkpt lat="33.997871" lon="-115.700178">
        <ele>587.000000</ele>
        <time>2020-06-20T18:42:01.000Z</time>
      </trkpt>
      <trkpt lat="33.997885" lon="-115.700265">
        <ele>587.398438</ele>
        <time>2020-06-20T18:42:02.000Z</time>
      </trkpt>
      <trkpt lat="33.997966" lon="-115.700781">
        <ele>586.000000</ele>
        <time>2020-06-20T18:42:14.000Z</time>
      </trkpt>
      <trkpt lat="33.99797" lon="-115.70093">
        <ele>586.097656</ele>
        <time>2020-06-20T18:42:18.000Z</time>
      </trkpt>
      <trkpt lat="33.997969" lon="-115.700966">
        <ele>586.097656</ele>
        <time>2020-06-20T18:42:21.000Z</time>
      </trkpt>
      <trkpt lat="33.997927" lon="-115.701046">
        <ele>586.398438</ele>
        <time>2020-06-20T18:42:22.000Z</time>
      </trkpt>
      <trkpt lat="33.997903" lon="-115.701052">
        <ele>586.398438</ele>
        <time>2020-06-20T18:42:25.000Z</time>
      </trkpt>
      <trkpt lat="33.99784" lon="-115.701003">
        <ele>586.398438</ele>
        <time>2020-06-20T18:42:26.000Z</time>
      </trkpt>
      <trkpt lat="33.997822" lon="-115.700973">
        <ele>586.000000</ele>
        <time>2020-06-20T18:42:28.000Z</time>
      </trkpt>
      <trkpt lat="33.997761" lon="-115.700885">
        <ele>585.500000</ele>
        <time>2020-06-20T18:42:30.000Z</time>
      </trkpt>
      <trkpt lat="33.997689" lon="-115.700778">
        <ele>585.500000</ele>
        <time>2020-06-20T18:42:34.000Z</time>
      </trkpt>
      <trkpt lat="33.997675" lon="-115.700748">
        <ele>586.296875</ele>
        <time>2020-06-20T18:42:37.000Z</time>
      </trkpt>
      <trkpt lat="33.997646" lon="-115.700651">
        <ele>586.796875</ele>
        <time>2020-06-20T18:42:38.000Z</time>
      </trkpt>
      <trkpt lat="33.997639" lon="-115.700618">
        <ele>587.398438</ele>
        <time>2020-06-20T18:42:41.000Z</time>
      </trkpt>
      <trkpt lat="33.997611" lon="-115.700528">
        <ele>587.597656</ele>
        <time>2020-06-20T18:42:42.000Z</time>
      </trkpt>
      <trkpt lat="33.997604" lon="-115.700508">
        <ele>588.199219</ele>
        <time>2020-06-20T18:42:55.000Z</time>
      </trkpt>
      <trkpt lat="33.997561" lon="-115.700426">
        <ele>588.500000</ele>
        <time>2020-06-20T18:42:56.000Z</time>
      </trkpt>
      <trkpt lat="33.997505" lon="-115.700326">
        <ele>590.898438</ele>
        <time>2020-06-20T18:43:02.000Z</time>
      </trkpt>
      <trkpt lat="33.997495" lon="-115.700311">
        <ele>591.097656</ele>
        <time>2020-06-20T18:43:07.000Z</time>
      </trkpt>
      <trkpt lat="33.997446" lon="-115.700237">
        <ele>591.500000</ele>
        <time>2020-06-20T18:43:08.000Z</time>
      </trkpt>
      <trkpt lat="33.997435" lon="-115.700219">
        <ele>593.398438</ele>
        <time>2020-06-20T18:43:13.000Z</time>
      </trkpt>
      <trkpt lat="33.997401" lon="-115.700122">
        <ele>593.597656</ele>
        <time>2020-06-20T18:43:14.000Z</time>
      </trkpt>
      <trkpt lat="33.997388" lon="-115.700106">
        <ele>595.597656</ele>
        <time>2020-06-20T18:43:18.000Z</time>
      </trkpt>
      <trkpt lat="33.997309" lon="-115.700006">
        <ele>596.000000</ele>
        <time>2020-06-20T18:43:21.000Z</time>
      </trkpt>
      <trkpt lat="33.997293" lon="-115.699991">
        <ele>597.097656</ele>
        <time>2020-06-20T18:43:25.000Z</time>
      </trkpt>
      <trkpt lat="33.99722" lon="-115.699938">
        <ele>597.398438</ele>
        <time>2020-06-20T18:43:26.000Z</time>
      </trkpt>
      <trkpt lat="33.9972" lon="-115.699926">
        <ele>597.699219</ele>
        <time>2020-06-20T18:43:30.000Z</time>
      </trkpt>
      <trkpt lat="33.996867" lon="-115.699733">
        <ele>602.699219</ele>
        <time>2020-06-20T18:43:45.000Z</time>
      </trkpt>
      <trkpt lat="33.996765" lon="-115.699662">
        <ele>603.796875</ele>
        <time>2020-06-20T18:43:51.000Z</time>
      </trkpt>
      <trkpt lat="33.996747" lon="-115.699652">
        <ele>603.796875</ele>
        <time>2020-06-20T18:43:55.000Z</time>
      </trkpt>
      <trkpt lat="33.996584" lon="-115.699539">
        <ele>605.796875</ele>
        <time>2020-06-20T18:44:02.000Z</time>
      </trkpt>
      <trkpt lat="33.996565" lon="-115.69953">
        <ele>606.296875</ele>
        <time>2020-06-20T18:44:06.000Z</time>
      </trkpt>
      <trkpt lat="33.996474" lon="-115.699512">
        <ele>606.296875</ele>
        <time>2020-06-20T18:44:07.000Z</time>
      </trkpt>
      <trkpt lat="33.99645" lon="-115.69951">
        <ele>606.796875</ele>
        <time>2020-06-20T18:44:10.000Z</time>
      </trkpt>
      <trkpt lat="33.996354" lon="-115.69952">
        <ele>606.898438</ele>
        <time>2020-06-20T18:44:12.000Z</time>
      </trkpt>
      <trkpt lat="33.996331" lon="-115.699516">
        <ele>606.500000</ele>
        <time>2020-06-20T18:44:15.000Z</time>
      </trkpt>
      <trkpt lat="33.996237" lon="-115.699483">
        <ele>606.597656</ele>
        <time>2020-06-20T18:44:17.000Z</time>
      </trkpt>
      <trkpt lat="33.996214" lon="-115.69948">
        <ele>606.699219</ele>
        <time>2020-06-20T18:44:20.000Z</time>
      </trkpt>
      <trkpt lat="33.996142" lon="-115.69949">
        <ele>606.699219</ele>
        <time>2020-06-20T18:44:21.000Z</time>
      </trkpt>
      <trkpt lat="33.996119" lon="-115.699501">
        <ele>606.500000</ele>
        <time>2020-06-20T18:44:24.000Z</time>
      </trkpt>
      <trkpt lat="33.996052" lon="-115.699551">
        <ele>606.597656</ele>
        <time>2020-06-20T18:44:25.000Z</time>
      </trkpt>
      <trkpt lat="33.996031" lon="-115.699573">
        <ele>606.500000</ele>
        <time>2020-06-20T18:44:28.000Z</time>
      </trkpt>
      <trkpt lat="33.995924" lon="-115.699672">
        <ele>607.097656</ele>
        <time>2020-06-20T18:44:31.000Z</time>
      </trkpt>
      <trkpt lat="33.995903" lon="-115.699687">
        <ele>607.199219</ele>
        <time>2020-06-20T18:44:34.000Z</time>
      </trkpt>
      <trkpt lat="33.995834" lon="-115.699721">
        <ele>607.097656</ele>
        <time>2020-06-20T18:44:35.000Z</time>
      </trkpt>
      <trkpt lat="33.995811" lon="-115.69973">
        <ele>606.898438</ele>
        <time>2020-06-20T18:44:38.000Z</time>
      </trkpt>
      <trkpt lat="33.995735" lon="-115.699735">
        <ele>607.097656</ele>
        <time>2020-06-20T18:44:39.000Z</time>
      </trkpt>
      <trkpt lat="33.995706" lon="-115.699733">
        <ele>607.500000</ele>
        <time>2020-06-20T18:44:41.000Z</time>
      </trkpt>
      <trkpt lat="33.995643" lon="-115.69972">
        <ele>607.597656</ele>
        <time>2020-06-20T18:44:42.000Z</time>
      </trkpt>
      <trkpt lat="33.995307" lon="-115.699628">
        <ele>609.699219</ele>
        <time>2020-06-20T18:44:52.000Z</time>
      </trkpt>
      <trkpt lat="33.995278" lon="-115.699617">
        <ele>609.500000</ele>
        <time>2020-06-20T18:44:55.000Z</time>
      </trkpt>
      <trkpt lat="33.9952" lon="-115.699579">
        <ele>609.500000</ele>
        <time>2020-06-20T18:44:56.000Z</time>
      </trkpt>
      <trkpt lat="33.995176" lon="-115.699564">
        <ele>609.199219</ele>
        <time>2020-06-20T18:44:59.000Z</time>
      </trkpt>
      <trkpt lat="33.99511" lon="-115.699521">
        <ele>609.199219</ele>
        <time>2020-06-20T18:45:00.000Z</time>
      </trkpt>
      <trkpt lat="33.995094" lon="-115.699508">
        <ele>609.000000</ele>
        <time>2020-06-20T18:45:05.000Z</time>
      </trkpt>
      <trkpt lat="33.995014" lon="-115.699426">
        <ele>608.597656</ele>
        <time>2020-06-20T18:45:07.000Z</time>
      </trkpt>
      <trkpt lat="33.994858" lon="-115.699237">
        <ele>605.898438</ele>
        <time>2020-06-20T18:45:21.000Z</time>
      </trkpt>
      <trkpt lat="33.994851" lon="-115.699227">
        <ele>604.699219</ele>
        <time>2020-06-20T18:45:28.000Z</time>
      </trkpt>
      <trkpt lat="33.994774" lon="-115.699159">
        <ele>604.597656</ele>
        <time>2020-06-20T18:45:29.000Z</time>
      </trkpt>
      <trkpt lat="33.994762" lon="-115.699147">
        <ele>603.199219</ele>
        <time>2020-06-20T18:45:34.000Z</time>
      </trkpt>
      <trkpt lat="33.994655" lon="-115.699064">
        <ele>602.796875</ele>
        <time>2020-06-20T18:45:37.000Z</time>
      </trkpt>
      <trkpt lat="33.994634" lon="-115.699048">
        <ele>602.296875</ele>
        <time>2020-06-20T18:45:40.000Z</time>
      </trkpt>
      <trkpt lat="33.994571" lon="-115.698978">
        <ele>601.796875</ele>
        <time>2020-06-20T18:45:41.000Z</time>
      </trkpt>
      <trkpt lat="33.994557" lon="-115.698954">
        <ele>601.097656</ele>
        <time>2020-06-20T18:45:44.000Z</time>
      </trkpt>
      <trkpt lat="33.994528" lon="-115.698853">
        <ele>601.000000</ele>
        <time>2020-06-20T18:45:45.000Z</time>
      </trkpt>
      <trkpt lat="33.994527" lon="-115.698816">
        <ele>601.000000</ele>
        <time>2020-06-20T18:45:47.000Z</time>
      </trkpt>
      <trkpt lat="33.994536" lon="-115.698742">
        <ele>600.898438</ele>
        <time>2020-06-20T18:45:48.000Z</time>
      </trkpt>
      <trkpt lat="33.994547" lon="-115.698578">
        <ele>600.597656</ele>
        <time>2020-06-20T18:45:54.000Z</time>
      </trkpt>
      <trkpt lat="33.994547" lon="-115.698559">
        <ele>600.199219</ele>
        <time>2020-06-20T18:45:59.000Z</time>
      </trkpt>
      <trkpt lat="33.994535" lon="-115.698469">
        <ele>600.097656</ele>
        <time>2020-06-20T18:46:00.000Z</time>
      </trkpt>
      <trkpt lat="33.994529" lon="-115.698449">
        <ele>599.097656</ele>
        <time>2020-06-20T18:46:05.000Z</time>
      </trkpt>
      <trkpt lat="33.994474" lon="-115.698365">
        <ele>598.898438</ele>
        <time>2020-06-20T18:46:06.000Z</time>
      </trkpt>
      <trkpt lat="33.994457" lon="-115.698349">
        <ele>599.500000</ele>
        <time>2020-06-20T18:46:10.000Z</time>
      </trkpt>
      <trkpt lat="33.994378" lon="-115.698304">
        <ele>599.699219</ele>
        <time>2020-06-20T18:46:11.000Z</time>
      </trkpt>
      <trkpt lat="33.994355" lon="-115.698299">
        <ele>599.597656</ele>
        <time>2020-06-20T18:46:15.000Z</time>
      </trkpt>
      <trkpt lat="33.994269" lon="-115.698287">
        <ele>599.597656</ele>
        <time>2020-06-20T18:46:16.000Z</time>
      </trkpt>
      <trkpt lat="33.994248" lon="-115.698288">
        <ele>599.398438</ele>
        <time>2020-06-20T18:46:19.000Z</time>
      </trkpt>
      <trkpt lat="33.99415" lon="-115.698302">
        <ele>599.296875</ele>
        <time>2020-06-20T18:46:21.000Z</time>
      </trkpt>
      <trkpt lat="33.994124" lon="-115.698307">
        <ele>599.296875</ele>
        <time>2020-06-20T18:46:24.000Z</time>
      </trkpt>
      <trkpt lat="33.994043" lon="-115.698342">
        <ele>599.296875</ele>
        <time>2020-06-20T18:46:25.000Z</time>
      </trkpt>
      <trkpt lat="33.994018" lon="-115.69836">
        <ele>599.000000</ele>
        <time>2020-06-20T18:46:28.000Z</time>
      </trkpt>
      <trkpt lat="33.993951" lon="-115.69842">
        <ele>598.796875</ele>
        <time>2020-06-20T18:46:29.000Z</time>
      </trkpt>
      <trkpt lat="33.993868" lon="-115.698501">
        <ele>598.699219</ele>
        <time>2020-06-20T18:46:33.000Z</time>
      </trkpt>
      <trkpt lat="33.993846" lon="-115.698516">
        <ele>598.000000</ele>
        <time>2020-06-20T18:46:36.000Z</time>
      </trkpt>
      <trkpt lat="33.993779" lon="-115.698541">
        <ele>598.000000</ele>
        <time>2020-06-20T18:46:38.000Z</time>
      </trkpt>
      <trkpt lat="33.993747" lon="-115.698544">
        <ele>596.000000</ele>
        <time>2020-06-20T18:46:46.000Z</time>
      </trkpt>
      <trkpt lat="33.993603" lon="-115.698569">
        <ele>595.597656</ele>
        <time>2020-06-20T18:46:56.000Z</time>
      </trkpt>
      <trkpt lat="33.993593" lon="-115.698573">
        <ele>593.796875</ele>
        <time>2020-06-20T18:47:05.000Z</time>
      </trkpt>
      <trkpt lat="33.993507" lon="-115.698581">
        <ele>593.500000</ele>
        <time>2020-06-20T18:47:06.000Z</time>
      </trkpt>
      <trkpt lat="33.993496" lon="-115.698587">
        <ele>591.597656</ele>
        <time>2020-06-20T18:47:14.000Z</time>
      </trkpt>
      <trkpt lat="33.99339" lon="-115.698644">
        <ele>590.898438</ele>
        <time>2020-06-20T18:47:18.000Z</time>
      </trkpt>
      <trkpt lat="33.993381" lon="-115.698654">
        <ele>590.296875</ele>
        <time>2020-06-20T18:47:24.000Z</time>
      </trkpt>
      <trkpt lat="33.993315" lon="-115.698721">
        <ele>590.097656</ele>
        <time>2020-06-20T18:47:25.000Z</time>
      </trkpt>
      <trkpt lat="33.993304" lon="-115.69873">
        <ele>590.597656</ele>
        <time>2020-06-20T18:47:30.000Z</time>
      </trkpt>
      <trkpt lat="33.993235" lon="-115.698796">
        <ele>590.500000</ele>
        <time>2020-06-20T18:47:31.000Z</time>
      </trkpt>
      <trkpt lat="33.993092" lon="-115.698917">
        <ele>590.500000</ele>
        <time>2020-06-20T18:47:41.000Z</time>
      </trkpt>
      <trkpt lat="33.993072" lon="-115.698929">
        <ele>590.097656</ele>
        <time>2020-06-20T18:47:45.000Z</time>
      </trkpt>
      <trkpt lat="33.993008" lon="-115.698961">
        <ele>590.398438</ele>
        <time>2020-06-20T18:47:47.000Z</time>
      </trkpt>
      <trkpt lat="33.992979" lon="-115.698974">
        <ele>589.898438</ele>
        <time>2020-06-20T18:47:51.000Z</time>
      </trkpt>
      <trkpt lat="33.992912" lon="-115.698996">
        <ele>589.500000</ele>
        <time>2020-06-20T18:47:53.000Z</time>
      </trkpt>
      <trkpt lat="33.992809" lon="-115.699029">
        <ele>588.796875</ele>
        <time>2020-06-20T18:48:00.000Z</time>
      </trkpt>
      <trkpt lat="33.992721" lon="-115.699067">
        <ele>588.296875</ele>
        <time>2020-06-20T18:48:06.000Z</time>
      </trkpt>
      <trkpt lat="33.992705" lon="-115.699069">
        <ele>587.898438</ele>
        <time>2020-06-20T18:48:10.000Z</time>
      </trkpt>
      <trkpt lat="33.992506" lon="-115.699069">
        <ele>588.398438</ele>
        <time>2020-06-20T18:48:17.000Z</time>
      </trkpt>
      <trkpt lat="33.992484" lon="-115.699067">
        <ele>589.097656</ele>
        <time>2020-06-20T18:48:20.000Z</time>
      </trkpt>
      <trkpt lat="33.992417" lon="-115.699051">
        <ele>589.097656</ele>
        <time>2020-06-20T18:48:21.000Z</time>
      </trkpt>
      <trkpt lat="33.992193" lon="-115.698986">
        <ele>590.296875</ele>
        <time>2020-06-20T18:48:31.000Z</time>
      </trkpt>
      <trkpt lat="33.992172" lon="-115.698976">
        <ele>590.500000</ele>
        <time>2020-06-20T18:48:34.000Z</time>
      </trkpt>
      <trkpt lat="33.992114" lon="-115.698932">
        <ele>590.597656</ele>
        <time>2020-06-20T18:48:36.000Z</time>
      </trkpt>
      <trkpt lat="33.992087" lon="-115.698905">
        <ele>590.296875</ele>
        <time>2020-06-20T18:48:39.000Z</time>
      </trkpt>
      <trkpt lat="33.992017" lon="-115.698827">
        <ele>589.898438</ele>
        <time>2020-06-20T18:48:41.000Z</time>
      </trkpt>
      <trkpt lat="33.991954" lon="-115.698745">
        <ele>588.898438</ele>
        <time>2020-06-20T18:48:45.000Z</time>
      </trkpt>
      <trkpt lat="33.991886" lon="-115.698647">
        <ele>588.500000</ele>
        <time>2020-06-20T18:48:52.000Z</time>
      </trkpt>
      <trkpt lat="33.991877" lon="-115.698631">
        <ele>588.199219</ele>
        <time>2020-06-20T18:48:57.000Z</time>
      </trkpt>
      <trkpt lat="33.991807" lon="-115.698505">
        <ele>587.699219</ele>
        <time>2020-06-20T18:49:03.000Z</time>
      </trkpt>
      <trkpt lat="33.991799" lon="-115.698497">
        <ele>586.199219</ele>
        <time>2020-06-20T18:49:11.000Z</time>
      </trkpt>
      <trkpt lat="33.991753" lon="-115.698416">
        <ele>586.000000</ele>
        <time>2020-06-20T18:49:12.000Z</time>
      </trkpt>
      <trkpt lat="33.991691" lon="-115.698322">
        <ele>584.898438</ele>
        <time>2020-06-20T18:49:19.000Z</time>
      </trkpt>
      <trkpt lat="33.99168" lon="-115.698309">
        <ele>584.597656</ele>
        <time>2020-06-20T18:49:24.000Z</time>
      </trkpt>
      <trkpt lat="33.991439" lon="-115.698016">
        <ele>582.699219</ele>
        <time>2020-06-20T18:49:44.000Z</time>
      </trkpt>
      <trkpt lat="33.99143" lon="-115.69801">
        <ele>582.000000</ele>
        <time>2020-06-20T18:49:52.000Z</time>
      </trkpt>
      <trkpt lat="33.991331" lon="-115.697947">
        <ele>581.398438</ele>
        <time>2020-06-20T18:49:55.000Z</time>
      </trkpt>
      <trkpt lat="33.99125" lon="-115.697886">
        <ele>580.699219</ele>
        <time>2020-06-20T18:50:02.000Z</time>
      </trkpt>
      <trkpt lat="33.991243" lon="-115.697878">
        <ele>578.699219</ele>
        <time>2020-06-20T18:51:37.000Z</time>
      </trkpt>
      <trkpt lat="33.991172" lon="-115.697825">
        <ele>578.597656</ele>
        <time>2020-06-20T18:51:38.000Z</time>
      </trkpt>
      <trkpt lat="33.991161" lon="-115.69782">
        <ele>578.000000</ele>
        <time>2020-06-20T18:51:46.000Z</time>
      </trkpt>
      <trkpt lat="33.991087" lon="-115.697761">
        <ele>577.898438</ele>
        <time>2020-06-20T18:51:47.000Z</time>
      </trkpt>
      <trkpt lat="33.991077" lon="-115.697755">
        <ele>577.199219</ele>
        <time>2020-06-20T18:51:56.000Z</time>
      </trkpt>
      <trkpt lat="33.990996" lon="-115.697709">
        <ele>577.097656</ele>
        <time>2020-06-20T18:51:57.000Z</time>
      </trkpt>
      <trkpt lat="33.990986" lon="-115.697708">
        <ele>576.597656</ele>
        <time>2020-06-20T18:52:08.000Z</time>
      </trkpt>
      <trkpt lat="33.990906" lon="-115.697698">
        <ele>576.398438</ele>
        <time>2020-06-20T18:52:10.000Z</time>
      </trkpt>
      <trkpt lat="33.990895" lon="-115.697703">
        <ele>576.000000</ele>
        <time>2020-06-20T18:52:22.000Z</time>
      </trkpt>
      <trkpt lat="33.990816" lon="-115.697728">
        <ele>575.398438</ele>
        <time>2020-06-20T18:52:24.000Z</time>
      </trkpt>
      <trkpt lat="33.990806" lon="-115.697735">
        <ele>574.000000</ele>
        <time>2020-06-20T18:52:37.000Z</time>
      </trkpt>
      <trkpt lat="33.990734" lon="-115.697773">
        <ele>573.796875</ele>
        <time>2020-06-20T18:52:39.000Z</time>
      </trkpt>
      <trkpt lat="33.990652" lon="-115.697818">
        <ele>573.296875</ele>
        <time>2020-06-20T18:52:47.000Z</time>
      </trkpt>
      <trkpt lat="33.990641" lon="-115.69782">
        <ele>572.597656</ele>
        <time>2020-06-20T18:52:54.000Z</time>
      </trkpt>
      <trkpt lat="33.990518" lon="-115.697851">
        <ele>572.500000</ele>
        <time>2020-06-20T18:52:58.000Z</time>
      </trkpt>
      <trkpt lat="33.990503" lon="-115.697856">
        <ele>571.097656</ele>
        <time>2020-06-20T18:58:36.000Z</time>
      </trkpt>
      <trkpt lat="33.990441" lon="-115.697911">
        <ele>570.796875</ele>
        <time>2020-06-20T18:58:39.000Z</time>
      </trkpt>
      <trkpt lat="33.990428" lon="-115.697927">
        <ele>570.597656</ele>
        <time>2020-06-20T18:58:53.000Z</time>
      </trkpt>
      <trkpt lat="33.990388" lon="-115.698">
        <ele>570.000000</ele>
        <time>2020-06-20T18:58:57.000Z</time>
      </trkpt>
      <trkpt lat="33.990378" lon="-115.698022">
        <ele>568.898438</ele>
        <time>2020-06-20T18:59:09.000Z</time>
      </trkpt>
      <trkpt lat="33.990339" lon="-115.698096">
        <ele>568.597656</ele>
        <time>2020-06-20T18:59:12.000Z</time>
      </trkpt>
      <trkpt lat="33.990328" lon="-115.698114">
        <ele>567.898438</ele>
        <time>2020-06-20T18:59:22.000Z</time>
      </trkpt>
      <trkpt lat="33.990313" lon="-115.6982">
        <ele>567.500000</ele>
        <time>2020-06-20T18:59:25.000Z</time>
      </trkpt>
      <trkpt lat="33.990282" lon="-115.698335">
        <ele>565.597656</ele>
        <time>2020-06-20T18:59:39.000Z</time>
      </trkpt>
      <trkpt lat="33.990282" lon="-115.698346">
        <ele>565.097656</ele>
        <time>2020-06-20T18:59:48.000Z</time>
      </trkpt>
      <trkpt lat="33.990296" lon="-115.698446">
        <ele>565.097656</ele>
        <time>2020-06-20T18:59:49.000Z</time>
      </trkpt>
      <trkpt lat="33.990299" lon="-115.698457">
        <ele>564.296875</ele>
        <time>2020-06-20T18:59:57.000Z</time>
      </trkpt>
      <trkpt lat="33.990336" lon="-115.698552">
        <ele>564.199219</ele>
        <time>2020-06-20T18:59:58.000Z</time>
      </trkpt>
      <trkpt lat="33.990344" lon="-115.69857">
        <ele>564.296875</ele>
        <time>2020-06-20T19:00:05.000Z</time>
      </trkpt>
      <trkpt lat="33.990403" lon="-115.698676">
        <ele>564.296875</ele>
        <time>2020-06-20T19:00:08.000Z</time>
      </trkpt>
      <trkpt lat="33.990411" lon="-115.698689">
        <ele>563.898438</ele>
        <time>2020-06-20T19:00:15.000Z</time>
      </trkpt>
      <trkpt lat="33.990484" lon="-115.69882">
        <ele>563.000000</ele>
        <time>2020-06-20T19:00:24.000Z</time>
      </trkpt>
      <trkpt lat="33.990488" lon="-115.698824">
        <ele>559.097656</ele>
        <time>2020-06-20T19:00:38.000Z</time>
      </trkpt>
      <trkpt lat="33.990559" lon="-115.698901">
        <ele>559.097656</ele>
        <time>2020-06-20T19:00:40.000Z</time>
      </trkpt>
      <trkpt lat="33.990566" lon="-115.69891">
        <ele>558.000000</ele>
        <time>2020-06-20T19:00:49.000Z</time>
      </trkpt>
      <trkpt lat="33.9906" lon="-115.699002">
        <ele>557.796875</ele>
        <time>2020-06-20T19:00:50.000Z</time>
      </trkpt>
      <trkpt lat="33.990597" lon="-115.699017">
        <ele>556.398438</ele>
        <time>2020-06-20T19:00:59.000Z</time>
      </trkpt>
      <trkpt lat="33.990531" lon="-115.699087">
        <ele>556.398438</ele>
        <time>2020-06-20T19:01:00.000Z</time>
      </trkpt>
      <trkpt lat="33.990521" lon="-115.699087">
        <ele>555.597656</ele>
        <time>2020-06-20T19:01:10.000Z</time>
      </trkpt>
      <trkpt lat="33.990437" lon="-115.699055">
        <ele>555.199219</ele>
        <time>2020-06-20T19:01:11.000Z</time>
      </trkpt>
      <trkpt lat="33.990426" lon="-115.69906">
        <ele>555.796875</ele>
        <time>2020-06-20T19:01:19.000Z</time>
      </trkpt>
      <trkpt lat="33.990347" lon="-115.699009">
        <ele>555.898438</ele>
        <time>2020-06-20T19:01:20.000Z</time>
      </trkpt>
      <trkpt lat="33.990254" lon="-115.698935">
        <ele>555.398438</ele>
        <time>2020-06-20T19:01:27.000Z</time>
      </trkpt>
      <trkpt lat="33.99024" lon="-115.698915">
        <ele>554.898438</ele>
        <time>2020-06-20T19:01:32.000Z</time>
      </trkpt>
      <trkpt lat="33.990176" lon="-115.69885">
        <ele>555.000000</ele>
        <time>2020-06-20T19:01:33.000Z</time>
      </trkpt>
      <trkpt lat="33.990161" lon="-115.698844">
        <ele>554.199219</ele>
        <time>2020-06-20T19:01:38.000Z</time>
      </trkpt>
      <trkpt lat="33.990076" lon="-115.698833">
        <ele>554.500000</ele>
        <time>2020-06-20T19:01:39.000Z</time>
      </trkpt>
      <trkpt lat="33.990059" lon="-115.698832">
        <ele>555.097656</ele>
        <time>2020-06-20T19:01:43.000Z</time>
      </trkpt>
      <trkpt lat="33.989984" lon="-115.698809">
        <ele>554.898438</ele>
        <time>2020-06-20T19:01:44.000Z</time>
      </trkpt>
      <trkpt lat="33.989969" lon="-115.698797">
        <ele>554.699219</ele>
        <time>2020-06-20T19:01:49.000Z</time>
      </trkpt>
      <trkpt lat="33.989916" lon="-115.698729">
        <ele>554.398438</ele>
        <time>2020-06-20T19:01:50.000Z</time>
      </trkpt>
      <trkpt lat="33.989906" lon="-115.698713">
        <ele>553.699219</ele>
        <time>2020-06-20T19:01:55.000Z</time>
      </trkpt>
      <trkpt lat="33.98986" lon="-115.698619">
        <ele>553.500000</ele>
        <time>2020-06-20T19:01:56.000Z</time>
      </trkpt>
      <trkpt lat="33.989853" lon="-115.698602">
        <ele>552.000000</ele>
        <time>2020-06-20T19:02:03.000Z</time>
      </trkpt>
      <trkpt lat="33.989831" lon="-115.698494">
        <ele>551.796875</ele>
        <time>2020-06-20T19:02:05.000Z</time>
      </trkpt>
      <trkpt lat="33.989829" lon="-115.698482">
        <ele>550.796875</ele>
        <time>2020-06-20T19:02:14.000Z</time>
      </trkpt>
      <trkpt lat="33.989796" lon="-115.698385">
        <ele>550.796875</ele>
        <time>2020-06-20T19:02:15.000Z</time>
      </trkpt>
      <trkpt lat="33.989792" lon="-115.698375">
        <ele>549.500000</ele>
        <time>2020-06-20T19:02:23.000Z</time>
      </trkpt>
      <trkpt lat="33.989743" lon="-115.698275">
        <ele>549.199219</ele>
        <time>2020-06-20T19:02:24.000Z</time>
      </trkpt>
      <trkpt lat="33.989662" lon="-115.698126">
        <ele>547.296875</ele>
        <time>2020-06-20T19:02:33.000Z</time>
      </trkpt>
      <trkpt lat="33.989659" lon="-115.698115">
        <ele>546.199219</ele>
        <time>2020-06-20T19:02:42.000Z</time>
      </trkpt>
      <trkpt lat="33.989641" lon="-115.698014">
        <ele>546.296875</ele>
        <time>2020-06-20T19:02:43.000Z</time>
      </trkpt>
      <trkpt lat="33.98964" lon="-115.698002">
        <ele>546.597656</ele>
        <time>2020-06-20T19:02:50.000Z</time>
      </trkpt>
      <trkpt lat="33.989647" lon="-115.697882">
        <ele>546.097656</ele>
        <time>2020-06-20T19:02:52.000Z</time>
      </trkpt>
      <trkpt lat="33.989649" lon="-115.697865">
        <ele>545.898438</ele>
        <time>2020-06-20T19:02:56.000Z</time>
      </trkpt>
      <trkpt lat="33.989674" lon="-115.697778">
        <ele>545.898438</ele>
        <time>2020-06-20T19:02:57.000Z</time>
      </trkpt>
      <trkpt lat="33.989683" lon="-115.697756">
        <ele>545.296875</ele>
        <time>2020-06-20T19:03:01.000Z</time>
      </trkpt>
      <trkpt lat="33.989779" lon="-115.697576">
        <ele>544.699219</ele>
        <time>2020-06-20T19:03:07.000Z</time>
      </trkpt>
      <trkpt lat="33.989782" lon="-115.697558">
        <ele>544.500000</ele>
        <time>2020-06-20T19:03:13.000Z</time>
      </trkpt>
      <trkpt lat="33.989805" lon="-115.697466">
        <ele>544.296875</ele>
        <time>2020-06-20T19:03:14.000Z</time>
      </trkpt>
      <trkpt lat="33.989806" lon="-115.697447">
        <ele>543.796875</ele>
        <time>2020-06-20T19:03:21.000Z</time>
      </trkpt>
      <trkpt lat="33.989771" lon="-115.697363">
        <ele>543.796875</ele>
        <time>2020-06-20T19:03:23.000Z</time>
      </trkpt>
      <trkpt lat="33.989757" lon="-115.697344">
        <ele>543.000000</ele>
        <time>2020-06-20T19:03:41.000Z</time>
      </trkpt>
      <trkpt lat="33.989707" lon="-115.697272">
        <ele>543.398438</ele>
        <time>2020-06-20T19:03:43.000Z</time>
      </trkpt>
      <trkpt lat="33.989699" lon="-115.697242">
        <ele>543.898438</ele>
        <time>2020-06-20T19:03:47.000Z</time>
      </trkpt>
      <trkpt lat="33.989705" lon="-115.69716">
        <ele>544.097656</ele>
        <time>2020-06-20T19:03:49.000Z</time>
      </trkpt>
      <trkpt lat="33.989718" lon="-115.697118">
        <ele>542.898438</ele>
        <time>2020-06-20T19:03:53.000Z</time>
      </trkpt>
      <trkpt lat="33.989746" lon="-115.697049">
        <ele>542.296875</ele>
        <time>2020-06-20T19:03:56.000Z</time>
      </trkpt>
      <trkpt lat="33.98981" lon="-115.696888">
        <ele>539.796875</ele>
        <time>2020-06-20T19:04:06.000Z</time>
      </trkpt>
      <trkpt lat="33.989856" lon="-115.696765">
        <ele>538.199219</ele>
        <time>2020-06-20T19:04:12.000Z</time>
      </trkpt>
      <trkpt lat="33.98986" lon="-115.696744">
        <ele>537.097656</ele>
        <time>2020-06-20T19:04:16.000Z</time>
      </trkpt>
      <trkpt lat="33.989886" lon="-115.696657">
        <ele>536.898438</ele>
        <time>2020-06-20T19:04:17.000Z</time>
      </trkpt>
      <trkpt lat="33.989895" lon="-115.696631">
        <ele>535.898438</ele>
        <time>2020-06-20T19:04:20.000Z</time>
      </trkpt>
      <trkpt lat="33.989932" lon="-115.696553">
        <ele>535.597656</ele>
        <time>2020-06-20T19:04:21.000Z</time>
      </trkpt>
      <trkpt lat="33.989999" lon="-115.696401">
        <ele>534.898438</ele>
        <time>2020-06-20T19:04:27.000Z</time>
      </trkpt>
      <trkpt lat="33.990034" lon="-115.696295">
        <ele>534.796875</ele>
        <time>2020-06-20T19:04:35.000Z</time>
      </trkpt>
      <trkpt lat="33.990039" lon="-115.696287">
        <ele>534.699219</ele>
        <time>2020-06-20T19:04:44.000Z</time>
      </trkpt>
      <trkpt lat="33.990109" lon="-115.696229">
        <ele>534.796875</ele>
        <time>2020-06-20T19:04:45.000Z</time>
      </trkpt>
      <trkpt lat="33.990116" lon="-115.696222">
        <ele>534.199219</ele>
        <time>2020-06-20T19:04:53.000Z</time>
      </trkpt>
      <trkpt lat="33.990231" lon="-115.69612">
        <ele>533.699219</ele>
        <time>2020-06-20T19:05:00.000Z</time>
      </trkpt>
      <trkpt lat="33.990236" lon="-115.696112">
        <ele>534.296875</ele>
        <time>2020-06-20T19:05:25.000Z</time>
      </trkpt>
      <trkpt lat="33.990309" lon="-115.695983">
        <ele>535.597656</ele>
        <time>2020-06-20T19:05:30.000Z</time>
      </trkpt>
      <trkpt lat="33.990318" lon="-115.695973">
        <ele>537.296875</ele>
        <time>2020-06-20T19:05:37.000Z</time>
      </trkpt>
      <trkpt lat="33.990404" lon="-115.695982">
        <ele>537.398438</ele>
        <time>2020-06-20T19:05:38.000Z</time>
      </trkpt>
      <trkpt lat="33.990416" lon="-115.695989">
        <ele>538.097656</ele>
        <time>2020-06-20T19:05:44.000Z</time>
      </trkpt>
      <trkpt lat="33.990491" lon="-115.696022">
        <ele>538.199219</ele>
        <time>2020-06-20T19:05:45.000Z</time>
      </trkpt>
      <trkpt lat="33.990505" lon="-115.696027">
        <ele>538.500000</ele>
        <time>2020-06-20T19:05:50.000Z</time>
      </trkpt>
      <trkpt lat="33.990586" lon="-115.696048">
        <ele>538.796875</ele>
        <time>2020-06-20T19:05:51.000Z</time>
      </trkpt>
      <trkpt lat="33.990603" lon="-115.696051">
        <ele>539.796875</ele>
        <time>2020-06-20T19:05:56.000Z</time>
      </trkpt>
      <trkpt lat="33.990678" lon="-115.696056">
        <ele>539.500000</ele>
        <time>2020-06-20T19:05:58.000Z</time>
      </trkpt>
      <trkpt lat="33.990706" lon="-115.696058">
        <ele>540.296875</ele>
        <time>2020-06-20T19:06:03.000Z</time>
      </trkpt>
      <trkpt lat="33.990777" lon="-115.696077">
        <ele>541.898438</ele>
        <time>2020-06-20T19:07:26.000Z</time>
      </trkpt>
      <trkpt lat="33.990777" lon="-115.696077">
        <ele>541.898438</ele>
        <time>2020-06-20T19:07:26.000Z</time>
      </trkpt>
    </trkseg>
    <trkseg>
      <trkpt lat="33.990451" lon="-115.696154">
        <ele>538.898438</ele>
        <time>2020-06-20T19:38:59.000Z</time>
      </trkpt>
      <trkpt lat="33.990431" lon="-115.696037">
        <ele>535.898438</ele>
        <time>2020-06-20T19:39:07.000Z</time>
      </trkpt>
      <trkpt lat="33.990425" lon="-115.696024">
        <ele>534.398438</ele>
        <time>2020-06-20T19:39:15.000Z</time>
      </trkpt>
      <trkpt lat="33.990359" lon="-115.695965">
        <ele>534.097656</ele>
        <time>2020-06-20T19:39:16.000Z</time>
      </trkpt>
      <trkpt lat="33.990346" lon="-115.695958">
        <ele>533.398438</ele>
        <time>2020-06-20T19:39:22.000Z</time>
      </trkpt>
      <trkpt lat="33.990258" lon="-115.695916">
        <ele>532.796875</ele>
        <time>2020-06-20T19:39:24.000Z</time>
      </trkpt>
      <trkpt lat="33.990245" lon="-115.695907">
        <ele>531.296875</ele>
        <time>2020-06-20T19:39:30.000Z</time>
      </trkpt>
      <trkpt lat="33.990035" lon="-115.695785">
        <ele>528.296875</ele>
        <time>2020-06-20T19:39:39.000Z</time>
      </trkpt>
      <trkpt lat="33.990014" lon="-115.695774">
        <ele>527.000000</ele>
        <time>2020-06-20T19:39:42.000Z</time>
      </trkpt>
      <trkpt lat="33.989928" lon="-115.69574">
        <ele>526.296875</ele>
        <time>2020-06-20T19:39:44.000Z</time>
      </trkpt>
      <trkpt lat="33.989817" lon="-115.695703">
        <ele>525.796875</ele>
        <time>2020-06-20T19:39:49.000Z</time>
      </trkpt>
      <trkpt lat="33.989623" lon="-115.695632">
        <ele>524.097656</ele>
        <time>2020-06-20T19:39:56.000Z</time>
      </trkpt>
      <trkpt lat="33.989472" lon="-115.695551">
        <ele>523.796875</ele>
        <time>2020-06-20T19:40:03.000Z</time>
      </trkpt>
      <trkpt lat="33.989449" lon="-115.695536">
        <ele>523.199219</ele>
        <time>2020-06-20T19:40:06.000Z</time>
      </trkpt>
      <trkpt lat="33.989368" lon="-115.695494">
        <ele>522.796875</ele>
        <time>2020-06-20T19:40:07.000Z</time>
      </trkpt>
      <trkpt lat="33.989336" lon="-115.695483">
        <ele>522.199219</ele>
        <time>2020-06-20T19:40:09.000Z</time>
      </trkpt>
      <trkpt lat="33.989188" lon="-115.695426">
        <ele>521.699219</ele>
        <time>2020-06-20T19:40:12.000Z</time>
      </trkpt>
      <trkpt lat="33.988724" lon="-115.695208">
        <ele>520.000000</ele>
        <time>2020-06-20T19:40:31.000Z</time>
      </trkpt>
      <trkpt lat="33.988693" lon="-115.695189">
        <ele>519.699219</ele>
        <time>2020-06-20T19:40:33.000Z</time>
      </trkpt>
      <trkpt lat="33.988445" lon="-115.69504">
        <ele>520.296875</ele>
        <time>2020-06-20T19:40:40.000Z</time>
      </trkpt>
      <trkpt lat="33.988415" lon="-115.695027">
        <ele>520.199219</ele>
        <time>2020-06-20T19:40:42.000Z</time>
      </trkpt>
      <trkpt lat="33.988349" lon="-115.695003">
        <ele>520.398438</ele>
        <time>2020-06-20T19:40:43.000Z</time>
      </trkpt>
      <trkpt lat="33.988156" lon="-115.694955">
        <ele>521.000000</ele>
        <time>2020-06-20T19:40:49.000Z</time>
      </trkpt>
      <trkpt lat="33.987834" lon="-115.694865">
        <ele>522.898438</ele>
        <time>2020-06-20T19:41:00.000Z</time>
      </trkpt>
      <trkpt lat="33.987808" lon="-115.694853">
        <ele>522.000000</ele>
        <time>2020-06-20T19:41:04.000Z</time>
      </trkpt>
      <trkpt lat="33.987756" lon="-115.694826">
        <ele>520.597656</ele>
        <time>2020-06-20T19:41:58.000Z</time>
      </trkpt>
      <trkpt lat="33.987756" lon="-115.694826">
        <ele>520.597656</ele>
        <time>2020-06-20T19:41:58.000Z</time>
      </trkpt>
    </trkseg>
    <trkseg>
      <trkpt lat="33.987135" lon="-115.69432">
        <ele>515.199219</ele>
        <time>2020-06-20T19:43:37.000Z</time>
      </trkpt>
      <trkpt lat="33.987008" lon="-115.694236">
        <ele>515.398438</ele>
        <time>2020-06-20T19:43:46.000Z</time>
      </trkpt>
      <trkpt lat="33.986994" lon="-115.694222">
        <ele>514.097656</ele>
        <time>2020-06-20T19:43:51.000Z</time>
      </trkpt>
      <trkpt lat="33.986926" lon="-115.694171">
        <ele>513.796875</ele>
        <time>2020-06-20T19:43:52.000Z</time>
      </trkpt>
      <trkpt lat="33.986913" lon="-115.694165">
        <ele>512.699219</ele>
        <time>2020-06-20T19:43:58.000Z</time>
      </trkpt>
      <trkpt lat="33.98685" lon="-115.69411">
        <ele>512.597656</ele>
        <time>2020-06-20T19:43:59.000Z</time>
      </trkpt>
      <trkpt lat="33.986839" lon="-115.6941">
        <ele>512.000000</ele>
        <time>2020-06-20T19:44:05.000Z</time>
      </trkpt>
      <trkpt lat="33.98676" lon="-115.694045">
        <ele>511.898438</ele>
        <time>2020-06-20T19:44:07.000Z</time>
      </trkpt>
      <trkpt lat="33.98675" lon="-115.694036">
        <ele>510.296875</ele>
        <time>2020-06-20T19:44:14.000Z</time>
      </trkpt>
      <trkpt lat="33.986685" lon="-115.693953">
        <ele>509.796875</ele>
        <time>2020-06-20T19:44:15.000Z</time>
      </trkpt>
      <trkpt lat="33.98667" lon="-115.693933">
        <ele>509.296875</ele>
        <time>2020-06-20T19:44:18.000Z</time>
      </trkpt>
      <trkpt lat="33.986625" lon="-115.693864">
        <ele>509.097656</ele>
        <time>2020-06-20T19:44:19.000Z</time>
      </trkpt>
      <trkpt lat="33.986615" lon="-115.693841">
        <ele>507.796875</ele>
        <time>2020-06-20T19:44:24.000Z</time>
      </trkpt>
      <trkpt lat="33.986589" lon="-115.693754">
        <ele>507.796875</ele>
        <time>2020-06-20T19:44:25.000Z</time>
      </trkpt>
      <trkpt lat="33.986583" lon="-115.693737">
        <ele>506.500000</ele>
        <time>2020-06-20T19:44:31.000Z</time>
      </trkpt>
      <trkpt lat="33.986582" lon="-115.693639">
        <ele>506.398438</ele>
        <time>2020-06-20T19:44:32.000Z</time>
      </trkpt>
      <trkpt lat="33.986588" lon="-115.693624">
        <ele>505.398438</ele>
        <time>2020-06-20T19:44:38.000Z</time>
      </trkpt>
      <trkpt lat="33.986577" lon="-115.693512">
        <ele>505.097656</ele>
        <time>2020-06-20T19:44:39.000Z</time>
      </trkpt>
      <trkpt lat="33.986563" lon="-115.693492">
        <ele>503.199219</ele>
        <time>2020-06-20T19:44:43.000Z</time>
      </trkpt>
      <trkpt lat="33.986492" lon="-115.693446">
        <ele>502.699219</ele>
        <time>2020-06-20T19:44:44.000Z</time>
      </trkpt>
      <trkpt lat="33.986477" lon="-115.693443">
        <ele>502.199219</ele>
        <time>2020-06-20T19:44:50.000Z</time>
      </trkpt>
      <trkpt lat="33.986383" lon="-115.693421">
        <ele>501.796875</ele>
        <time>2020-06-20T19:44:52.000Z</time>
      </trkpt>
      <trkpt lat="33.986362" lon="-115.693414">
        <ele>501.000000</ele>
        <time>2020-06-20T19:44:57.000Z</time>
      </trkpt>
      <trkpt lat="33.986283" lon="-115.69338">
        <ele>500.898438</ele>
        <time>2020-06-20T19:44:58.000Z</time>
      </trkpt>
      <trkpt lat="33.986269" lon="-115.693371">
        <ele>499.199219</ele>
        <time>2020-06-20T19:45:04.000Z</time>
      </trkpt>
      <trkpt lat="33.986206" lon="-115.6933">
        <ele>498.898438</ele>
        <time>2020-06-20T19:45:05.000Z</time>
      </trkpt>
      <trkpt lat="33.986193" lon="-115.693285">
        <ele>497.500000</ele>
        <time>2020-06-20T19:45:09.000Z</time>
      </trkpt>
      <trkpt lat="33.986136" lon="-115.69321">
        <ele>497.097656</ele>
        <time>2020-06-20T19:45:10.000Z</time>
      </trkpt>
      <trkpt lat="33.986126" lon="-115.693192">
        <ele>496.398438</ele>
        <time>2020-06-20T19:45:13.000Z</time>
      </trkpt>
      <trkpt lat="33.986055" lon="-115.693056">
        <ele>495.796875</ele>
        <time>2020-06-20T19:45:16.000Z</time>
      </trkpt>
      <trkpt lat="33.98604" lon="-115.693024">
        <ele>494.898438</ele>
        <time>2020-06-20T19:45:19.000Z</time>
      </trkpt>
      <trkpt lat="33.985959" lon="-115.69285">
        <ele>494.000000</ele>
        <time>2020-06-20T19:45:23.000Z</time>
      </trkpt>
      <trkpt lat="33.985948" lon="-115.69282">
        <ele>493.296875</ele>
        <time>2020-06-20T19:45:26.000Z</time>
      </trkpt>
      <trkpt lat="33.985919" lon="-115.692721">
        <ele>493.199219</ele>
        <time>2020-06-20T19:45:27.000Z</time>
      </trkpt>
      <trkpt lat="33.985895" lon="-115.692614">
        <ele>493.000000</ele>
        <time>2020-06-20T19:45:31.000Z</time>
      </trkpt>
      <trkpt lat="33.985892" lon="-115.692594">
        <ele>492.500000</ele>
        <time>2020-06-20T19:45:36.000Z</time>
      </trkpt>
      <trkpt lat="33.98588" lon="-115.692485">
        <ele>492.199219</ele>
        <time>2020-06-20T19:45:38.000Z</time>
      </trkpt>
      <trkpt lat="33.985875" lon="-115.692468">
        <ele>491.199219</ele>
        <time>2020-06-20T19:45:44.000Z</time>
      </trkpt>
      <trkpt lat="33.985844" lon="-115.692357">
        <ele>491.097656</ele>
        <time>2020-06-20T19:45:46.000Z</time>
      </trkpt>
      <trkpt lat="33.985839" lon="-115.692343">
        <ele>491.097656</ele>
        <time>2020-06-20T19:45:52.000Z</time>
      </trkpt>
      <trkpt lat="33.985794" lon="-115.692261">
        <ele>490.796875</ele>
        <time>2020-06-20T19:45:53.000Z</time>
      </trkpt>
      <trkpt lat="33.985785" lon="-115.692251">
        <ele>490.000000</ele>
        <time>2020-06-20T19:46:00.000Z</time>
      </trkpt>
      <trkpt lat="33.985694" lon="-115.692147">
        <ele>489.296875</ele>
        <time>2020-06-20T19:46:04.000Z</time>
      </trkpt>
      <trkpt lat="33.985687" lon="-115.692135">
        <ele>489.296875</ele>
        <time>2020-06-20T19:46:11.000Z</time>
      </trkpt>
      <trkpt lat="33.985619" lon="-115.69205">
        <ele>489.097656</ele>
        <time>2020-06-20T19:46:13.000Z</time>
      </trkpt>
      <trkpt lat="33.985609" lon="-115.692041">
        <ele>488.000000</ele>
        <time>2020-06-20T19:46:20.000Z</time>
      </trkpt>
      <trkpt lat="33.985535" lon="-115.691979">
        <ele>487.796875</ele>
        <time>2020-06-20T19:46:21.000Z</time>
      </trkpt>
      <trkpt lat="33.985523" lon="-115.691972">
        <ele>488.398438</ele>
        <time>2020-06-20T19:46:27.000Z</time>
      </trkpt>
      <trkpt lat="33.985394" lon="-115.691917">
        <ele>486.699219</ele>
        <time>2020-06-20T19:46:32.000Z</time>
      </trkpt>
      <trkpt lat="33.985295" lon="-115.691884">
        <ele>484.597656</ele>
        <time>2020-06-20T19:46:39.000Z</time>
      </trkpt>
      <trkpt lat="33.985274" lon="-115.691873">
        <ele>484.097656</ele>
        <time>2020-06-20T19:46:44.000Z</time>
      </trkpt>
      <trkpt lat="33.985204" lon="-115.691853">
        <ele>484.000000</ele>
        <time>2020-06-20T19:46:46.000Z</time>
      </trkpt>
      <trkpt lat="33.985112" lon="-115.691828">
        <ele>483.097656</ele>
        <time>2020-06-20T19:46:55.000Z</time>
      </trkpt>
      <trkpt lat="33.985112" lon="-115.691828">
        <ele>481.398438</ele>
        <time>2020-06-20T19:47:08.000Z</time>
      </trkpt>
      <trkpt lat="33.98502" lon="-115.691822">
        <ele>481.296875</ele>
        <time>2020-06-20T19:47:09.000Z</time>
      </trkpt>
      <trkpt lat="33.985008" lon="-115.691822">
        <ele>481.199219</ele>
        <time>2020-06-20T19:47:16.000Z</time>
      </trkpt>
      <trkpt lat="33.984925" lon="-115.691855">
        <ele>481.500000</ele>
        <time>2020-06-20T19:47:17.000Z</time>
      </trkpt>
      <trkpt lat="33.984833" lon="-115.691903">
        <ele>479.898438</ele>
        <time>2020-06-20T19:47:24.000Z</time>
      </trkpt>
      <trkpt lat="33.984741" lon="-115.691957">
        <ele>478.500000</ele>
        <time>2020-06-20T19:47:30.000Z</time>
      </trkpt>
      <trkpt lat="33.984728" lon="-115.691969">
        <ele>477.898438</ele>
        <time>2020-06-20T19:47:36.000Z</time>
      </trkpt>
      <trkpt lat="33.984651" lon="-115.692006">
        <ele>477.597656</ele>
        <time>2020-06-20T19:47:37.000Z</time>
      </trkpt>
      <trkpt lat="33.98463" lon="-115.692006">
        <ele>477.296875</ele>
        <time>2020-06-20T19:47:40.000Z</time>
      </trkpt>
      <trkpt lat="33.984562" lon="-115.691983">
        <ele>477.097656</ele>
        <time>2020-06-20T19:47:41.000Z</time>
      </trkpt>
      <trkpt lat="33.984543" lon="-115.691973">
        <ele>477.097656</ele>
        <time>2020-06-20T19:47:44.000Z</time>
      </trkpt>
      <trkpt lat="33.984478" lon="-115.691928">
        <ele>476.898438</ele>
        <time>2020-06-20T19:47:45.000Z</time>
      </trkpt>
      <trkpt lat="33.984461" lon="-115.6919">
        <ele>476.296875</ele>
        <time>2020-06-20T19:47:48.000Z</time>
      </trkpt>
      <trkpt lat="33.984436" lon="-115.691831">
        <ele>475.097656</ele>
        <time>2020-06-20T19:50:56.000Z</time>
      </trkpt>
      <trkpt lat="33.984415" lon="-115.691794">
        <ele>474.898438</ele>
        <time>2020-06-20T19:51:00.000Z</time>
      </trkpt>
      <trkpt lat="33.984394" lon="-115.691723">
        <ele>474.500000</ele>
        <time>2020-06-20T19:51:02.000Z</time>
      </trkpt>
      <trkpt lat="33.984373" lon="-115.691676">
        <ele>474.296875</ele>
        <time>2020-06-20T19:51:04.000Z</time>
      </trkpt>
      <trkpt lat="33.984329" lon="-115.691621">
        <ele>474.296875</ele>
        <time>2020-06-20T19:51:05.000Z</time>
      </trkpt>
      <trkpt lat="33.984221" lon="-115.691504">
        <ele>473.699219</ele>
        <time>2020-06-20T19:51:09.000Z</time>
      </trkpt>
      <trkpt lat="33.984191" lon="-115.691474">
        <ele>473.699219</ele>
        <time>2020-06-20T19:51:11.000Z</time>
      </trkpt>
      <trkpt lat="33.984131" lon="-115.691422">
        <ele>473.500000</ele>
        <time>2020-06-20T19:51:12.000Z</time>
      </trkpt>
      <trkpt lat="33.984099" lon="-115.691402">
        <ele>473.000000</ele>
        <time>2020-06-20T19:51:14.000Z</time>
      </trkpt>
      <trkpt lat="33.984045" lon="-115.691369">
        <ele>472.500000</ele>
        <time>2020-06-20T19:51:15.000Z</time>
      </trkpt>
      <trkpt lat="33.984016" lon="-115.691355">
        <ele>472.296875</ele>
        <time>2020-06-20T19:51:17.000Z</time>
      </trkpt>
      <trkpt lat="33.983954" lon="-115.691342">
        <ele>472.097656</ele>
        <time>2020-06-20T19:51:18.000Z</time>
      </trkpt>
      <trkpt lat="33.983916" lon="-115.691343">
        <ele>472.199219</ele>
        <time>2020-06-20T19:51:20.000Z</time>
      </trkpt>
      <trkpt lat="33.983829" lon="-115.69136">
        <ele>472.296875</ele>
        <time>2020-06-20T19:51:21.000Z</time>
      </trkpt>
      <trkpt lat="33.983644" lon="-115.691394">
        <ele>471.597656</ele>
        <time>2020-06-20T19:51:25.000Z</time>
      </trkpt>
      <trkpt lat="33.983596" lon="-115.691393">
        <ele>471.500000</ele>
        <time>2020-06-20T19:51:26.000Z</time>
      </trkpt>
      <trkpt lat="33.983546" lon="-115.691388">
        <ele>471.398438</ele>
        <time>2020-06-20T19:51:27.000Z</time>
      </trkpt>
      <trkpt lat="33.983497" lon="-115.691376">
        <ele>471.296875</ele>
        <time>2020-06-20T19:51:28.000Z</time>
      </trkpt>
      <trkpt lat="33.983447" lon="-115.691359">
        <ele>471.000000</ele>
        <time>2020-06-20T19:51:29.000Z</time>
      </trkpt>
      <trkpt lat="33.983397" lon="-115.691337">
        <ele>470.699219</ele>
        <time>2020-06-20T19:51:30.000Z</time>
      </trkpt>
      <trkpt lat="33.98301" lon="-115.691134">
        <ele>470.199219</ele>
        <time>2020-06-20T19:51:37.000Z</time>
      </trkpt>
      <trkpt lat="33.982892" lon="-115.691055">
        <ele>469.699219</ele>
        <time>2020-06-20T19:51:39.000Z</time>
      </trkpt>
      <trkpt lat="33.982836" lon="-115.691013">
        <ele>469.398438</ele>
        <time>2020-06-20T19:51:40.000Z</time>
      </trkpt>
      <trkpt lat="33.982786" lon="-115.690967">
        <ele>469.199219</ele>
        <time>2020-06-20T19:51:41.000Z</time>
      </trkpt>
      <trkpt lat="33.982705" lon="-115.690876">
        <ele>468.898438</ele>
        <time>2020-06-20T19:51:43.000Z</time>
      </trkpt>
      <trkpt lat="33.982667" lon="-115.690829">
        <ele>468.597656</ele>
        <time>2020-06-20T19:51:44.000Z</time>
      </trkpt>
      <trkpt lat="33.982628" lon="-115.690772">
        <ele>468.500000</ele>
        <time>2020-06-20T19:51:45.000Z</time>
      </trkpt>
      <trkpt lat="33.982549" lon="-115.690639">
        <ele>467.898438</ele>
        <time>2020-06-20T19:51:47.000Z</time>
      </trkpt>
      <trkpt lat="33.982472" lon="-115.690483">
        <ele>467.199219</ele>
        <time>2020-06-20T19:51:49.000Z</time>
      </trkpt>
      <trkpt lat="33.982182" lon="-115.689805">
        <ele>465.199219</ele>
        <time>2020-06-20T19:51:58.000Z</time>
      </trkpt>
      <trkpt lat="33.98216" lon="-115.689763">
        <ele>465.097656</ele>
        <time>2020-06-20T19:52:00.000Z</time>
      </trkpt>
      <trkpt lat="33.982007" lon="-115.689501">
        <ele>464.500000</ele>
        <time>2020-06-20T19:52:04.000Z</time>
      </trkpt>
      <trkpt lat="33.981337" lon="-115.688446">
        <ele>462.796875</ele>
        <time>2020-06-20T19:52:22.000Z</time>
      </trkpt>
      <trkpt lat="33.981222" lon="-115.688211">
        <ele>462.199219</ele>
        <time>2020-06-20T19:52:26.000Z</time>
      </trkpt>
      <trkpt lat="33.980301" lon="-115.685958">
        <ele>458.097656</ele>
        <time>2020-06-20T19:52:59.000Z</time>
      </trkpt>
      <trkpt lat="33.98003" lon="-115.685189">
        <ele>456.398438</ele>
        <time>2020-06-20T19:53:09.000Z</time>
      </trkpt>
      <trkpt lat="33.979224" lon="-115.68349">
        <ele>453.699219</ele>
        <time>2020-06-20T19:53:34.000Z</time>
      </trkpt>
      <trkpt lat="33.979141" lon="-115.683351">
        <ele>453.597656</ele>
        <time>2020-06-20T19:53:36.000Z</time>
      </trkpt>
      <trkpt lat="33.979005" lon="-115.683157">
        <ele>453.500000</ele>
        <time>2020-06-20T19:53:39.000Z</time>
      </trkpt>
      <trkpt lat="33.978056" lon="-115.681857">
        <ele>451.199219</ele>
        <time>2020-06-20T19:54:00.000Z</time>
      </trkpt>
      <trkpt lat="33.977951" lon="-115.681749">
        <ele>450.898438</ele>
        <time>2020-06-20T19:54:02.000Z</time>
      </trkpt>
      <trkpt lat="33.977895" lon="-115.681701">
        <ele>450.898438</ele>
        <time>2020-06-20T19:54:03.000Z</time>
      </trkpt>
      <trkpt lat="33.977781" lon="-115.681618">
        <ele>450.699219</ele>
        <time>2020-06-20T19:54:05.000Z</time>
      </trkpt>
      <trkpt lat="33.977723" lon="-115.681588">
        <ele>450.597656</ele>
        <time>2020-06-20T19:54:06.000Z</time>
      </trkpt>
      <trkpt lat="33.977386" lon="-115.681451">
        <ele>449.296875</ele>
        <time>2020-06-20T19:54:12.000Z</time>
      </trkpt>
      <trkpt lat="33.977156" lon="-115.681372">
        <ele>448.898438</ele>
        <time>2020-06-20T19:54:16.000Z</time>
      </trkpt>
      <trkpt lat="33.976935" lon="-115.681325">
        <ele>448.597656</ele>
        <time>2020-06-20T19:54:20.000Z</time>
      </trkpt>
      <trkpt lat="33.97674" lon="-115.681309">
        <ele>447.699219</ele>
        <time>2020-06-20T19:54:24.000Z</time>
      </trkpt>
      <trkpt lat="33.976613" lon="-115.681314">
        <ele>447.500000</ele>
        <time>2020-06-20T19:54:27.000Z</time>
      </trkpt>
      <trkpt lat="33.976457" lon="-115.68133">
        <ele>447.500000</ele>
        <time>2020-06-20T19:54:31.000Z</time>
      </trkpt>
      <trkpt lat="33.976353" lon="-115.681355">
        <ele>447.796875</ele>
        <time>2020-06-20T19:54:34.000Z</time>
      </trkpt>
      <trkpt lat="33.976226" lon="-115.681386">
        <ele>448.296875</ele>
        <time>2020-06-20T19:54:38.000Z</time>
      </trkpt>
      <trkpt lat="33.976192" lon="-115.681389">
        <ele>447.898438</ele>
        <time>2020-06-20T19:54:40.000Z</time>
      </trkpt>
      <trkpt lat="33.976117" lon="-115.681392">
        <ele>447.398438</ele>
        <time>2020-06-20T19:54:41.000Z</time>
      </trkpt>
      <trkpt lat="33.97608" lon="-115.68139">
        <ele>446.699219</ele>
        <time>2020-06-20T19:54:43.000Z</time>
      </trkpt>
      <trkpt lat="33.976006" lon="-115.681373">
        <ele>446.296875</ele>
        <time>2020-06-20T19:54:44.000Z</time>
      </trkpt>
      <trkpt lat="33.975968" lon="-115.681356">
        <ele>445.500000</ele>
        <time>2020-06-20T19:54:46.000Z</time>
      </trkpt>
      <trkpt lat="33.975893" lon="-115.681301">
        <ele>445.296875</ele>
        <time>2020-06-20T19:54:47.000Z</time>
      </trkpt>
      <trkpt lat="33.975454" lon="-115.680932">
        <ele>445.500000</ele>
        <time>2020-06-20T19:54:58.000Z</time>
      </trkpt>
      <trkpt lat="33.975404" lon="-115.680909">
        <ele>445.796875</ele>
        <time>2020-06-20T19:54:59.000Z</time>
      </trkpt>
      <trkpt lat="33.975352" lon="-115.680893">
        <ele>446.000000</ele>
        <time>2020-06-20T19:55:00.000Z</time>
      </trkpt>
      <trkpt lat="33.975297" lon="-115.680885">
        <ele>446.097656</ele>
        <time>2020-06-20T19:55:01.000Z</time>
      </trkpt>
      <trkpt lat="33.975241" lon="-115.680883">
        <ele>445.898438</ele>
        <time>2020-06-20T19:55:02.000Z</time>
      </trkpt>
      <trkpt lat="33.975187" lon="-115.68089">
        <ele>445.796875</ele>
        <time>2020-06-20T19:55:03.000Z</time>
      </trkpt>
      <trkpt lat="33.975133" lon="-115.680901">
        <ele>445.796875</ele>
        <time>2020-06-20T19:55:04.000Z</time>
      </trkpt>
      <trkpt lat="33.974971" lon="-115.680952">
        <ele>445.398438</ele>
        <time>2020-06-20T19:55:07.000Z</time>
      </trkpt>
      <trkpt lat="33.974633" lon="-115.681063">
        <ele>445.097656</ele>
        <time>2020-06-20T19:55:13.000Z</time>
      </trkpt>
      <trkpt lat="33.974577" lon="-115.681074">
        <ele>445.097656</ele>
        <time>2020-06-20T19:55:14.000Z</time>
      </trkpt>
      <trkpt lat="33.97452" lon="-115.681079">
        <ele>445.097656</ele>
        <time>2020-06-20T19:55:15.000Z</time>
      </trkpt>
      <trkpt lat="33.974465" lon="-115.681078">
        <ele>445.000000</ele>
        <time>2020-06-20T19:55:16.000Z</time>
      </trkpt>
      <trkpt lat="33.974409" lon="-115.681072">
        <ele>444.898438</ele>
        <time>2020-06-20T19:55:17.000Z</time>
      </trkpt>
      <trkpt lat="33.974024" lon="-115.681025">
        <ele>444.296875</ele>
        <time>2020-06-20T19:55:24.000Z</time>
      </trkpt>
      <trkpt lat="33.973916" lon="-115.681035">
        <ele>444.097656</ele>
        <time>2020-06-20T19:55:26.000Z</time>
      </trkpt>
      <trkpt lat="33.973746" lon="-115.681065">
        <ele>444.000000</ele>
        <time>2020-06-20T19:55:29.000Z</time>
      </trkpt>
      <trkpt lat="33.973581" lon="-115.681117">
        <ele>443.597656</ele>
        <time>2020-06-20T19:55:32.000Z</time>
      </trkpt>
      <trkpt lat="33.973096" lon="-115.6813">
        <ele>442.699219</ele>
        <time>2020-06-20T19:55:41.000Z</time>
      </trkpt>
      <trkpt lat="33.973043" lon="-115.681327">
        <ele>442.597656</ele>
        <time>2020-06-20T19:55:42.000Z</time>
      </trkpt>
      <trkpt lat="33.972992" lon="-115.681359">
        <ele>442.500000</ele>
        <time>2020-06-20T19:55:43.000Z</time>
      </trkpt>
      <trkpt lat="33.972945" lon="-115.681394">
        <ele>442.398438</ele>
        <time>2020-06-20T19:55:44.000Z</time>
      </trkpt>
      <trkpt lat="33.972857" lon="-115.681472">
        <ele>442.000000</ele>
        <time>2020-06-20T19:55:46.000Z</time>
      </trkpt>
      <trkpt lat="33.972401" lon="-115.68189">
        <ele>441.796875</ele>
        <time>2020-06-20T19:55:57.000Z</time>
      </trkpt>
      <trkpt lat="33.970582" lon="-115.683121">
        <ele>441.296875</ele>
        <time>2020-06-20T19:56:36.000Z</time>
      </trkpt>
      <trkpt lat="33.970293" lon="-115.683438">
        <ele>440.699219</ele>
        <time>2020-06-20T19:56:43.000Z</time>
      </trkpt>
      <trkpt lat="33.969251" lon="-115.684714">
        <ele>439.898438</ele>
        <time>2020-06-20T19:57:09.000Z</time>
      </trkpt>
      <trkpt lat="33.969223" lon="-115.684754">
        <ele>440.199219</ele>
        <time>2020-06-20T19:57:11.000Z</time>
      </trkpt>
      <trkpt lat="33.969159" lon="-115.684831">
        <ele>440.199219</ele>
        <time>2020-06-20T19:57:12.000Z</time>
      </trkpt>
      <trkpt lat="33.968789" lon="-115.685271">
        <ele>440.398438</ele>
        <time>2020-06-20T19:57:21.000Z</time>
      </trkpt>
      <trkpt lat="33.968741" lon="-115.685313">
        <ele>440.296875</ele>
        <time>2020-06-20T19:57:22.000Z</time>
      </trkpt>
      <trkpt lat="33.96869" lon="-115.685354">
        <ele>440.000000</ele>
        <time>2020-06-20T19:57:23.000Z</time>
      </trkpt>
      <trkpt lat="33.968512" lon="-115.685472">
        <ele>439.597656</ele>
        <time>2020-06-20T19:57:26.000Z</time>
      </trkpt>
      <trkpt lat="33.967569" lon="-115.686121">
        <ele>440.398438</ele>
        <time>2020-06-20T19:57:40.000Z</time>
      </trkpt>
      <trkpt lat="33.96678" lon="-115.686799">
        <ele>439.796875</ele>
        <time>2020-06-20T19:57:52.000Z</time>
      </trkpt>
      <trkpt lat="33.96642" lon="-115.687167">
        <ele>438.796875</ele>
        <time>2020-06-20T19:58:00.000Z</time>
      </trkpt>
      <trkpt lat="33.966152" lon="-115.687514">
        <ele>438.296875</ele>
        <time>2020-06-20T19:58:06.000Z</time>
      </trkpt>
      <trkpt lat="33.964912" lon="-115.689126">
        <ele>435.199219</ele>
        <time>2020-06-20T19:58:40.000Z</time>
      </trkpt>
      <trkpt lat="33.964263" lon="-115.689837">
        <ele>434.597656</ele>
        <time>2020-06-20T19:58:57.000Z</time>
      </trkpt>
      <trkpt lat="33.963866" lon="-115.69017">
        <ele>435.097656</ele>
        <time>2020-06-20T19:59:06.000Z</time>
      </trkpt>
      <trkpt lat="33.961877" lon="-115.691584">
        <ele>433.000000</ele>
        <time>2020-06-20T19:59:44.000Z</time>
      </trkpt>
      <trkpt lat="33.961065" lon="-115.692114">
        <ele>430.898438</ele>
        <time>2020-06-20T20:00:00.000Z</time>
      </trkpt>
      <trkpt lat="33.961036" lon="-115.692139">
        <ele>431.000000</ele>
        <time>2020-06-20T20:00:02.000Z</time>
      </trkpt>
      <trkpt lat="33.960937" lon="-115.692239">
        <ele>431.097656</ele>
        <time>2020-06-20T20:00:10.000Z</time>
      </trkpt>
      <trkpt lat="33.960938" lon="-115.69224">
        <ele>430.398438</ele>
        <time>2020-06-20T20:01:00.000Z</time>
      </trkpt>
      <trkpt lat="33.960858" lon="-115.692326">
        <ele>430.398438</ele>
        <time>2020-06-20T20:01:01.000Z</time>
      </trkpt>
      <trkpt lat="33.960761" lon="-115.692415">
        <ele>430.296875</ele>
        <time>2020-06-20T20:01:04.000Z</time>
      </trkpt>
      <trkpt lat="33.957891" lon="-115.69502">
        <ele>427.500000</ele>
        <time>2020-06-20T20:01:47.000Z</time>
      </trkpt>
      <trkpt lat="33.95546" lon="-115.696882">
        <ele>429.597656</ele>
        <time>2020-06-20T20:02:26.000Z</time>
      </trkpt>
      <trkpt lat="33.95335" lon="-115.698347">
        <ele>430.597656</ele>
        <time>2020-06-20T20:02:54.000Z</time>
      </trkpt>
      <trkpt lat="33.952094" lon="-115.699419">
        <ele>431.097656</ele>
        <time>2020-06-20T20:03:10.000Z</time>
      </trkpt>
      <trkpt lat="33.950526" lon="-115.700901">
        <ele>431.296875</ele>
        <time>2020-06-20T20:03:30.000Z</time>
      </trkpt>
      <trkpt lat="33.946195" lon="-115.704046">
        <ele>435.500000</ele>
        <time>2020-06-20T20:04:25.000Z</time>
      </trkpt>
      <trkpt lat="33.944912" lon="-115.704842">
        <ele>437.000000</ele>
        <time>2020-06-20T20:04:39.000Z</time>
      </trkpt>
      <trkpt lat="33.935532" lon="-115.709395">
        <ele>448.398438</ele>
        <time>2020-06-20T20:06:10.000Z</time>
      </trkpt>
      <trkpt lat="33.932914" lon="-115.710735">
        <ele>452.597656</ele>
        <time>2020-06-20T20:06:38.000Z</time>
      </trkpt>
      <trkpt lat="33.927271" lon="-115.713336">
        <ele>461.000000</ele>
        <time>2020-06-20T20:07:35.000Z</time>
      </trkpt>
      <trkpt lat="33.925691" lon="-115.714197">
        <ele>465.000000</ele>
        <time>2020-06-20T20:07:52.000Z</time>
      </trkpt>
      <trkpt lat="33.921592" lon="-115.716077">
        <ele>471.796875</ele>
        <time>2020-06-20T20:08:32.000Z</time>
      </trkpt>
      <trkpt lat="33.921485" lon="-115.716111">
        <ele>472.000000</ele>
        <time>2020-06-20T20:08:33.000Z</time>
      </trkpt>
      <trkpt lat="33.921377" lon="-115.716137">
        <ele>472.000000</ele>
        <time>2020-06-20T20:08:34.000Z</time>
      </trkpt>
      <trkpt lat="33.921159" lon="-115.716171">
        <ele>472.296875</ele>
        <time>2020-06-20T20:08:36.000Z</time>
      </trkpt>
      <trkpt lat="33.920469" lon="-115.71627">
        <ele>474.000000</ele>
        <time>2020-06-20T20:08:42.000Z</time>
      </trkpt>
      <trkpt lat="33.920239" lon="-115.716344">
        <ele>474.699219</ele>
        <time>2020-06-20T20:08:44.000Z</time>
      </trkpt>
      <trkpt lat="33.920128" lon="-115.716393">
        <ele>475.097656</ele>
        <time>2020-06-20T20:08:45.000Z</time>
      </trkpt>
      <trkpt lat="33.92002" lon="-115.716451">
        <ele>475.398438</ele>
        <time>2020-06-20T20:08:46.000Z</time>
      </trkpt>
      <trkpt lat="33.919491" lon="-115.716792">
        <ele>477.097656</ele>
        <time>2020-06-20T20:08:51.000Z</time>
      </trkpt>
      <trkpt lat="33.918759" lon="-115.717306">
        <ele>479.500000</ele>
        <time>2020-06-20T20:08:58.000Z</time>
      </trkpt>
      <trkpt lat="33.918183" lon="-115.717768">
        <ele>481.097656</ele>
        <time>2020-06-20T20:09:04.000Z</time>
      </trkpt>
      <trkpt lat="33.918084" lon="-115.717828">
        <ele>481.296875</ele>
        <time>2020-06-20T20:09:05.000Z</time>
      </trkpt>
      <trkpt lat="33.917989" lon="-115.717878">
        <ele>481.398438</ele>
        <time>2020-06-20T20:09:06.000Z</time>
      </trkpt>
      <trkpt lat="33.917898" lon="-115.717917">
        <ele>481.597656</ele>
        <time>2020-06-20T20:09:07.000Z</time>
      </trkpt>
      <trkpt lat="33.909668" lon="-115.721313">
        <ele>501.097656</ele>
        <time>2020-06-20T20:10:26.000Z</time>
      </trkpt>
      <trkpt lat="33.90848" lon="-115.721672">
        <ele>504.500000</ele>
        <time>2020-06-20T20:10:36.000Z</time>
      </trkpt>
      <trkpt lat="33.908371" lon="-115.721733">
        <ele>504.699219</ele>
        <time>2020-06-20T20:10:37.000Z</time>
      </trkpt>
      <trkpt lat="33.908158" lon="-115.721872">
        <ele>505.296875</ele>
        <time>2020-06-20T20:10:39.000Z</time>
      </trkpt>
      <trkpt lat="33.907292" lon="-115.722465">
        <ele>507.699219</ele>
        <time>2020-06-20T20:10:47.000Z</time>
      </trkpt>
      <trkpt lat="33.905994" lon="-115.723065">
        <ele>511.898438</ele>
        <time>2020-06-20T20:10:58.000Z</time>
      </trkpt>
      <trkpt lat="33.899286" lon="-115.725895">
        <ele>528.898438</ele>
        <time>2020-06-20T20:11:52.000Z</time>
      </trkpt>
      <trkpt lat="33.89906" lon="-115.726045">
        <ele>529.597656</ele>
        <time>2020-06-20T20:11:54.000Z</time>
      </trkpt>
      <trkpt lat="33.898583" lon="-115.726393">
        <ele>532.000000</ele>
        <time>2020-06-20T20:11:59.000Z</time>
      </trkpt>
      <trkpt lat="33.898481" lon="-115.726444">
        <ele>532.398438</ele>
        <time>2020-06-20T20:12:00.000Z</time>
      </trkpt>
      <trkpt lat="33.898372" lon="-115.726487">
        <ele>532.699219</ele>
        <time>2020-06-20T20:12:01.000Z</time>
      </trkpt>
      <trkpt lat="33.898023" lon="-115.726594">
        <ele>533.597656</ele>
        <time>2020-06-20T20:12:04.000Z</time>
      </trkpt>
      <trkpt lat="33.896131" lon="-115.727062">
        <ele>538.199219</ele>
        <time>2020-06-20T20:12:19.000Z</time>
      </trkpt>
      <trkpt lat="33.895655" lon="-115.727275">
        <ele>539.296875</ele>
        <time>2020-06-20T20:12:23.000Z</time>
      </trkpt>
      <trkpt lat="33.895083" lon="-115.72759">
        <ele>540.796875</ele>
        <time>2020-06-20T20:12:28.000Z</time>
      </trkpt>
      <trkpt lat="33.893937" lon="-115.728229">
        <ele>545.097656</ele>
        <time>2020-06-20T20:12:38.000Z</time>
      </trkpt>
      <trkpt lat="33.893212" lon="-115.728518">
        <ele>547.796875</ele>
        <time>2020-06-20T20:12:44.000Z</time>
      </trkpt>
      <trkpt lat="33.890721" lon="-115.729459">
        <ele>555.898438</ele>
        <time>2020-06-20T20:13:04.000Z</time>
      </trkpt>
      <trkpt lat="33.88952" lon="-115.729744">
        <ele>558.898438</ele>
        <time>2020-06-20T20:13:13.000Z</time>
      </trkpt>
      <trkpt lat="33.88887" lon="-115.730009">
        <ele>561.097656</ele>
        <time>2020-06-20T20:13:18.000Z</time>
      </trkpt>
      <trkpt lat="33.887717" lon="-115.730496">
        <ele>565.699219</ele>
        <time>2020-06-20T20:13:27.000Z</time>
      </trkpt>
      <trkpt lat="33.887438" lon="-115.730566">
        <ele>566.398438</ele>
        <time>2020-06-20T20:13:29.000Z</time>
      </trkpt>
      <trkpt lat="33.886879" lon="-115.730696">
        <ele>567.597656</ele>
        <time>2020-06-20T20:13:33.000Z</time>
      </trkpt>
      <trkpt lat="33.886745" lon="-115.730755">
        <ele>567.796875</ele>
        <time>2020-06-20T20:13:34.000Z</time>
      </trkpt>
      <trkpt lat="33.886616" lon="-115.730824">
        <ele>568.296875</ele>
        <time>2020-06-20T20:13:35.000Z</time>
      </trkpt>
      <trkpt lat="33.886491" lon="-115.730901">
        <ele>568.898438</ele>
        <time>2020-06-20T20:13:36.000Z</time>
      </trkpt>
      <trkpt lat="33.885375" lon="-115.731624">
        <ele>573.199219</ele>
        <time>2020-06-20T20:13:45.000Z</time>
      </trkpt>
      <trkpt lat="33.884074" lon="-115.732255">
        <ele>577.796875</ele>
        <time>2020-06-20T20:13:55.000Z</time>
      </trkpt>
      <trkpt lat="33.883941" lon="-115.732299">
        <ele>578.199219</ele>
        <time>2020-06-20T20:13:56.000Z</time>
      </trkpt>
      <trkpt lat="33.883268" lon="-115.732461">
        <ele>580.000000</ele>
        <time>2020-06-20T20:14:01.000Z</time>
      </trkpt>
      <trkpt lat="33.882044" lon="-115.732757">
        <ele>582.699219</ele>
        <time>2020-06-20T20:14:10.000Z</time>
      </trkpt>
      <trkpt lat="33.881912" lon="-115.732812">
        <ele>583.597656</ele>
        <time>2020-06-20T20:14:11.000Z</time>
      </trkpt>
      <trkpt lat="33.881785" lon="-115.732874">
        <ele>584.500000</ele>
        <time>2020-06-20T20:14:12.000Z</time>
      </trkpt>
      <trkpt lat="33.881661" lon="-115.732946">
        <ele>585.097656</ele>
        <time>2020-06-20T20:14:13.000Z</time>
      </trkpt>
      <trkpt lat="33.881422" lon="-115.733104">
        <ele>585.699219</ele>
        <time>2020-06-20T20:14:15.000Z</time>
      </trkpt>
      <trkpt lat="33.880757" lon="-115.733599">
        <ele>588.000000</ele>
        <time>2020-06-20T20:14:21.000Z</time>
      </trkpt>
      <trkpt lat="33.8803" lon="-115.734013">
        <ele>589.597656</ele>
        <time>2020-06-20T20:14:25.000Z</time>
      </trkpt>
      <trkpt lat="33.879606" lon="-115.734693">
        <ele>592.000000</ele>
        <time>2020-06-20T20:14:31.000Z</time>
      </trkpt>
      <trkpt lat="33.879478" lon="-115.734779">
        <ele>592.398438</ele>
        <time>2020-06-20T20:14:32.000Z</time>
      </trkpt>
      <trkpt lat="33.879213" lon="-115.734932">
        <ele>593.199219</ele>
        <time>2020-06-20T20:14:34.000Z</time>
      </trkpt>
      <trkpt lat="33.873823" lon="-115.737853">
        <ele>609.000000</ele>
        <time>2020-06-20T20:15:12.000Z</time>
      </trkpt>
      <trkpt lat="33.87252" lon="-115.738382">
        <ele>613.398438</ele>
        <time>2020-06-20T20:15:21.000Z</time>
      </trkpt>
      <trkpt lat="33.871332" lon="-115.738688">
        <ele>617.000000</ele>
        <time>2020-06-20T20:15:29.000Z</time>
      </trkpt>
      <trkpt lat="33.871182" lon="-115.738709">
        <ele>617.398438</ele>
        <time>2020-06-20T20:15:30.000Z</time>
      </trkpt>
      <trkpt lat="33.871032" lon="-115.73872">
        <ele>618.000000</ele>
        <time>2020-06-20T20:15:31.000Z</time>
      </trkpt>
      <trkpt lat="33.870733" lon="-115.738719">
        <ele>618.796875</ele>
        <time>2020-06-20T20:15:33.000Z</time>
      </trkpt>
      <trkpt lat="33.869691" lon="-115.7387">
        <ele>621.699219</ele>
        <time>2020-06-20T20:15:40.000Z</time>
      </trkpt>
      <trkpt lat="33.869384" lon="-115.738744">
        <ele>622.398438</ele>
        <time>2020-06-20T20:15:42.000Z</time>
      </trkpt>
      <trkpt lat="33.869229" lon="-115.738777">
        <ele>622.699219</ele>
        <time>2020-06-20T20:15:43.000Z</time>
      </trkpt>
      <trkpt lat="33.869074" lon="-115.73882">
        <ele>623.199219</ele>
        <time>2020-06-20T20:15:44.000Z</time>
      </trkpt>
      <trkpt lat="33.86892" lon="-115.738873">
        <ele>623.597656</ele>
        <time>2020-06-20T20:15:45.000Z</time>
      </trkpt>
      <trkpt lat="33.868615" lon="-115.739005">
        <ele>624.398438</ele>
        <time>2020-06-20T20:15:47.000Z</time>
      </trkpt>
      <trkpt lat="33.865435" lon="-115.740589">
        <ele>636.597656</ele>
        <time>2020-06-20T20:16:25.000Z</time>
      </trkpt>
      <trkpt lat="33.860781" lon="-115.743096">
        <ele>652.097656</ele>
        <time>2020-06-20T20:17:05.000Z</time>
      </trkpt>
      <trkpt lat="33.860714" lon="-115.743123">
        <ele>652.296875</ele>
        <time>2020-06-20T20:17:06.000Z</time>
      </trkpt>
      <trkpt lat="33.860599" lon="-115.743166">
        <ele>652.597656</ele>
        <time>2020-06-20T20:17:08.000Z</time>
      </trkpt>
      <trkpt lat="33.860417" lon="-115.743268">
        <ele>653.699219</ele>
        <time>2020-06-20T20:17:11.000Z</time>
      </trkpt>
      <trkpt lat="33.860351" lon="-115.743313">
        <ele>654.097656</ele>
        <time>2020-06-20T20:17:12.000Z</time>
      </trkpt>
      <trkpt lat="33.860147" lon="-115.743477">
        <ele>654.296875</ele>
        <time>2020-06-20T20:17:15.000Z</time>
      </trkpt>
      <trkpt lat="33.859871" lon="-115.743739">
        <ele>654.699219</ele>
        <time>2020-06-20T20:17:19.000Z</time>
      </trkpt>
      <trkpt lat="33.858861" lon="-115.744733">
        <ele>657.500000</ele>
        <time>2020-06-20T20:17:30.000Z</time>
      </trkpt>
      <trkpt lat="33.858749" lon="-115.744818">
        <ele>657.898438</ele>
        <time>2020-06-20T20:17:31.000Z</time>
      </trkpt>
      <trkpt lat="33.858634" lon="-115.744893">
        <ele>658.097656</ele>
        <time>2020-06-20T20:17:32.000Z</time>
      </trkpt>
      <trkpt lat="33.858516" lon="-115.744959">
        <ele>658.597656</ele>
        <time>2020-06-20T20:17:33.000Z</time>
      </trkpt>
      <trkpt lat="33.858398" lon="-115.745014">
        <ele>658.898438</ele>
        <time>2020-06-20T20:17:34.000Z</time>
      </trkpt>
      <trkpt lat="33.857448" lon="-115.745386">
        <ele>662.500000</ele>
        <time>2020-06-20T20:17:42.000Z</time>
      </trkpt>
      <trkpt lat="33.856967" lon="-115.745536">
        <ele>664.199219</ele>
        <time>2020-06-20T20:17:46.000Z</time>
      </trkpt>
      <trkpt lat="33.854962" lon="-115.74605">
        <ele>670.597656</ele>
        <time>2020-06-20T20:18:01.000Z</time>
      </trkpt>
      <trkpt lat="33.854841" lon="-115.746097">
        <ele>670.898438</ele>
        <time>2020-06-20T20:18:02.000Z</time>
      </trkpt>
      <trkpt lat="33.854721" lon="-115.746158">
        <ele>671.500000</ele>
        <time>2020-06-20T20:18:03.000Z</time>
      </trkpt>
      <trkpt lat="33.854602" lon="-115.746232">
        <ele>671.898438</ele>
        <time>2020-06-20T20:18:04.000Z</time>
      </trkpt>
      <trkpt lat="33.853779" lon="-115.746786">
        <ele>674.296875</ele>
        <time>2020-06-20T20:18:13.000Z</time>
      </trkpt>
      <trkpt lat="33.853624" lon="-115.74692">
        <ele>674.796875</ele>
        <time>2020-06-20T20:18:15.000Z</time>
      </trkpt>
      <trkpt lat="33.852707" lon="-115.747701">
        <ele>678.500000</ele>
        <time>2020-06-20T20:18:24.000Z</time>
      </trkpt>
      <trkpt lat="33.851559" lon="-115.748416">
        <ele>682.898438</ele>
        <time>2020-06-20T20:18:33.000Z</time>
      </trkpt>
      <trkpt lat="33.85117" lon="-115.748628">
        <ele>684.097656</ele>
        <time>2020-06-20T20:18:36.000Z</time>
      </trkpt>
      <trkpt lat="33.849468" lon="-115.749387">
        <ele>688.097656</ele>
        <time>2020-06-20T20:18:48.000Z</time>
      </trkpt>
      <trkpt lat="33.84932" lon="-115.74944">
        <ele>688.398438</ele>
        <time>2020-06-20T20:18:49.000Z</time>
      </trkpt>
      <trkpt lat="33.849168" lon="-115.749482">
        <ele>688.898438</ele>
        <time>2020-06-20T20:18:50.000Z</time>
      </trkpt>
      <trkpt lat="33.849014" lon="-115.749513">
        <ele>689.398438</ele>
        <time>2020-06-20T20:18:51.000Z</time>
      </trkpt>
      <trkpt lat="33.848697" lon="-115.74955">
        <ele>690.500000</ele>
        <time>2020-06-20T20:18:53.000Z</time>
      </trkpt>
      <trkpt lat="33.845605" lon="-115.749863">
        <ele>697.898438</ele>
        <time>2020-06-20T20:19:13.000Z</time>
      </trkpt>
      <trkpt lat="33.845207" lon="-115.749958">
        <ele>698.898438</ele>
        <time>2020-06-20T20:19:17.000Z</time>
      </trkpt>
      <trkpt lat="33.845058" lon="-115.750012">
        <ele>699.500000</ele>
        <time>2020-06-20T20:19:19.000Z</time>
      </trkpt>
      <trkpt lat="33.844149" lon="-115.750331">
        <ele>702.199219</ele>
        <time>2020-06-20T20:19:34.000Z</time>
      </trkpt>
      <trkpt lat="33.843868" lon="-115.750391">
        <ele>703.000000</ele>
        <time>2020-06-20T20:19:38.000Z</time>
      </trkpt>
      <trkpt lat="33.843722" lon="-115.750398">
        <ele>703.000000</ele>
        <time>2020-06-20T20:19:40.000Z</time>
      </trkpt>
      <trkpt lat="33.842994" lon="-115.750418">
        <ele>705.500000</ele>
        <time>2020-06-20T20:19:49.000Z</time>
      </trkpt>
      <trkpt lat="33.842744" lon="-115.750464">
        <ele>706.000000</ele>
        <time>2020-06-20T20:19:52.000Z</time>
      </trkpt>
      <trkpt lat="33.840949" lon="-115.750795">
        <ele>711.398438</ele>
        <time>2020-06-20T20:20:11.000Z</time>
      </trkpt>
      <trkpt lat="33.840845" lon="-115.750839">
        <ele>712.000000</ele>
        <time>2020-06-20T20:20:12.000Z</time>
      </trkpt>
      <trkpt lat="33.840742" lon="-115.750895">
        <ele>712.398438</ele>
        <time>2020-06-20T20:20:13.000Z</time>
      </trkpt>
      <trkpt lat="33.840639" lon="-115.75096">
        <ele>712.898438</ele>
        <time>2020-06-20T20:20:14.000Z</time>
      </trkpt>
      <trkpt lat="33.840013" lon="-115.751364">
        <ele>716.097656</ele>
        <time>2020-06-20T20:20:20.000Z</time>
      </trkpt>
      <trkpt lat="33.83909" lon="-115.751876">
        <ele>719.699219</ele>
        <time>2020-06-20T20:20:29.000Z</time>
      </trkpt>
      <trkpt lat="33.838103" lon="-115.752592">
        <ele>722.796875</ele>
        <time>2020-06-20T20:20:39.000Z</time>
      </trkpt>
      <trkpt lat="33.837996" lon="-115.752643">
        <ele>722.898438</ele>
        <time>2020-06-20T20:20:40.000Z</time>
      </trkpt>
      <trkpt lat="33.837888" lon="-115.752687">
        <ele>723.000000</ele>
        <time>2020-06-20T20:20:41.000Z</time>
      </trkpt>
      <trkpt lat="33.837779" lon="-115.752716">
        <ele>723.000000</ele>
        <time>2020-06-20T20:20:42.000Z</time>
      </trkpt>
      <trkpt lat="33.83767" lon="-115.752727">
        <ele>723.000000</ele>
        <time>2020-06-20T20:20:43.000Z</time>
      </trkpt>
      <trkpt lat="33.837374" lon="-115.752765">
        <ele>723.898438</ele>
        <time>2020-06-20T20:20:46.000Z</time>
      </trkpt>
      <trkpt lat="33.837276" lon="-115.7528">
        <ele>724.199219</ele>
        <time>2020-06-20T20:20:47.000Z</time>
      </trkpt>
      <trkpt lat="33.837178" lon="-115.752853">
        <ele>724.699219</ele>
        <time>2020-06-20T20:20:48.000Z</time>
      </trkpt>
      <trkpt lat="33.837081" lon="-115.752921">
        <ele>725.000000</ele>
        <time>2020-06-20T20:20:49.000Z</time>
      </trkpt>
      <trkpt lat="33.836984" lon="-115.753">
        <ele>725.500000</ele>
        <time>2020-06-20T20:20:50.000Z</time>
      </trkpt>
      <trkpt lat="33.835549" lon="-115.754287">
        <ele>730.097656</ele>
        <time>2020-06-20T20:21:03.000Z</time>
      </trkpt>
      <trkpt lat="33.834377" lon="-115.755587">
        <ele>735.500000</ele>
        <time>2020-06-20T20:21:14.000Z</time>
      </trkpt>
      <trkpt lat="33.833974" lon="-115.756051">
        <ele>737.199219</ele>
        <time>2020-06-20T20:21:19.000Z</time>
      </trkpt>
      <trkpt lat="33.833885" lon="-115.756129">
        <ele>737.597656</ele>
        <time>2020-06-20T20:21:20.000Z</time>
      </trkpt>
      <trkpt lat="33.833793" lon="-115.756203">
        <ele>737.898438</ele>
        <time>2020-06-20T20:21:21.000Z</time>
      </trkpt>
      <trkpt lat="33.833694" lon="-115.756268">
        <ele>738.097656</ele>
        <time>2020-06-20T20:21:22.000Z</time>
      </trkpt>
      <trkpt lat="33.833588" lon="-115.756328">
        <ele>738.699219</ele>
        <time>2020-06-20T20:21:23.000Z</time>
      </trkpt>
      <trkpt lat="33.832649" lon="-115.756804">
        <ele>742.097656</ele>
        <time>2020-06-20T20:21:31.000Z</time>
      </trkpt>
      <trkpt lat="33.832526" lon="-115.756854">
        <ele>742.796875</ele>
        <time>2020-06-20T20:21:32.000Z</time>
      </trkpt>
      <trkpt lat="33.832402" lon="-115.756894">
        <ele>743.199219</ele>
        <time>2020-06-20T20:21:33.000Z</time>
      </trkpt>
      <trkpt lat="33.831063" lon="-115.757339">
        <ele>747.500000</ele>
        <time>2020-06-20T20:21:44.000Z</time>
      </trkpt>
      <trkpt lat="33.829585" lon="-115.758076">
        <ele>751.199219</ele>
        <time>2020-06-20T20:21:59.000Z</time>
      </trkpt>
      <trkpt lat="33.828563" lon="-115.758699">
        <ele>753.898438</ele>
        <time>2020-06-20T20:22:10.000Z</time>
      </trkpt>
      <trkpt lat="33.828563" lon="-115.758699">
        <ele>753.898438</ele>
        <time>2020-06-20T20:22:10.000Z</time>
      </trkpt>
    </trkseg>
    <trkseg>
      <trkpt lat="33.828509" lon="-115.758731">
        <ele>754.097656</ele>
        <time>2020-06-20T20:22:11.000Z</time>
      </trkpt>
      <trkpt lat="33.828417" lon="-115.758785">
        <ele>754.597656</ele>
        <time>2020-06-20T20:22:14.000Z</time>
      </trkpt>
      <trkpt lat="33.828378" lon="-115.758803">
        <ele>754.296875</ele>
        <time>2020-06-20T20:22:16.000Z</time>
      </trkpt>
      <trkpt lat="33.828316" lon="-115.758791">
        <ele>754.398438</ele>
        <time>2020-06-20T20:22:18.000Z</time>
      </trkpt>
      <trkpt lat="33.828275" lon="-115.758735">
        <ele>753.597656</ele>
        <time>2020-06-20T20:22:19.000Z</time>
      </trkpt>
      <trkpt lat="33.828275" lon="-115.758735">
        <ele>753.597656</ele>
        <time>2020-06-20T20:22:19.000Z</time>
      </trkpt>
    </trkseg>
</trk>

  <wpt lat="34.005757" lon="-115.717351">
    <time>2020-06-20T18:03:55Z</time>
    <name>Bumps1</name>
    <ele>591</ele>
    <sym>BUMPS</sym>
    <cmt></cmt>
    <desc></desc>
    <type>Waypoint</type>
    <extensions>
      <mgn:extensions xmlns:mgn="http://www.magellangps.com/mgnext/0/2">
        <mgn:trkptid>34.005718,-115.717207,13</mgn:trkptid>
        <mgn:uuid>69b91b82-d244-4293-89b2-b68e0d3a9441</mgn:uuid>
        <mgn:trkuuid>c94cbd11-ab5b-4ac7-9050-10a504f36f57</mgn:trkuuid>
        <mgn:proplist>
          <mgn:prop key="WD">Some</mgn:prop>
          <mgn:prop key="LO">Some</mgn:prop>
          <mgn:prop key="DIRT"></mgn:prop>
          <mgn:prop key="T_MUD"></mgn:prop>
          <mgn:prop key="T_SAND">0-6N</mgn:prop>
          <mgn:prop key="T_SNOW"></mgn:prop>
          <mgn:prop key="T_ICE"></mgn:prop>
          <mgn:prop key="T_WATER"></mgn:prop>
          <mgn:prop key="T_ROCK"></mgn:prop>
          <mgn:prop key="PITCH">20-30</mgn:prop>
          <mgn:prop key="ROLL"></mgn:prop>
        </mgn:proplist>
      </mgn:extensions>
    </extensions>
  </wpt>

  <wpt lat="34.00474" lon="-115.712252">
    <time>2020-06-20T18:12:19Z</time>
    <name>mud pits</name>
    <ele>590</ele>
    <sym>LAKE</sym>
    <cmt></cmt>
    <desc></desc>
    <type>Waypoint</type>
    <extensions>
      <mgn:extensions xmlns:mgn="http://www.magellangps.com/mgnext/0/2">
        <mgn:trkptid>34.004677,-115.71233,10</mgn:trkptid>
        <mgn:uuid>ed148ed7-52c4-4f70-be95-d1d2a47b94de</mgn:uuid>
        <mgn:trkuuid>c94cbd11-ab5b-4ac7-9050-10a504f36f57</mgn:trkuuid>
        <mgn:proplist>
          <mgn:prop key="SEASON">Winter</mgn:prop>
        </mgn:proplist>
      </mgn:extensions>
    </extensions>
  </wpt>

  <wpt lat="34.003075" lon="-115.707635">
    <time>2020-06-20T18:17:56Z</time>
    <name>difficult spot</name>
    <ele>596</ele>
    <sym>BUMPS</sym>
    <cmt></cmt>
    <desc></desc>
    <type>Waypoint</type>
    <extensions>
      <mgn:extensions xmlns:mgn="http://www.magellangps.com/mgnext/0/2">
        <mgn:trkptid>34.003093,-115.707538,9</mgn:trkptid>
        <mgn:uuid>d0de7b44-6c63-4f5a-83c2-abe47c958045</mgn:uuid>
        <mgn:trkuuid>c94cbd11-ab5b-4ac7-9050-10a504f36f57</mgn:trkuuid>
        <mgn:proplist>
          <mgn:prop key="WD">Some</mgn:prop>
          <mgn:prop key="LO">Some</mgn:prop>
          <mgn:prop key="DIRT">Loose;</mgn:prop>
          <mgn:prop key="T_MUD"></mgn:prop>
          <mgn:prop key="T_SAND"></mgn:prop>
          <mgn:prop key="T_SNOW"></mgn:prop>
          <mgn:prop key="T_ICE"></mgn:prop>
          <mgn:prop key="T_WATER"></mgn:prop>
          <mgn:prop key="T_ROCK"></mgn:prop>
          <mgn:prop key="PITCH">10-20</mgn:prop>
          <mgn:prop key="ROLL">10-20</mgn:prop>
        </mgn:proplist>
      </mgn:extensions>
    </extensions>
  </wpt>

  <wpt lat="33.997963" lon="-115.700973">
    <time>2020-06-20T18:26:23Z</time>
    <name>difficult section</name>
    <ele>586</ele>
    <sym>BUMPS</sym>
    <cmt></cmt>
    <desc></desc>
    <type>Waypoint</type>
    <extensions>
      <mgn:extensions xmlns:mgn="http://www.magellangps.com/mgnext/0/2">
        <mgn:trkptid>33.997856,-115.701096,16</mgn:trkptid>
        <mgn:uuid>c987103e-68b7-4198-af9e-9af42ab940a2</mgn:uuid>
        <mgn:trkuuid>c94cbd11-ab5b-4ac7-9050-10a504f36f57</mgn:trkuuid>
        <mgn:proplist>
          <mgn:prop key="WD">Some</mgn:prop>
          <mgn:prop key="LO">Some</mgn:prop>
          <mgn:prop key="DIRT"></mgn:prop>
          <mgn:prop key="T_MUD"></mgn:prop>
          <mgn:prop key="T_SAND"></mgn:prop>
          <mgn:prop key="T_SNOW"></mgn:prop>
          <mgn:prop key="T_ICE"></mgn:prop>
          <mgn:prop key="T_WATER"></mgn:prop>
          <mgn:prop key="T_ROCK">0-6N</mgn:prop>
          <mgn:prop key="PITCH">10-20</mgn:prop>
          <mgn:prop key="ROLL"></mgn:prop>
        </mgn:proplist>
      </mgn:extensions>
    </extensions>
  </wpt>

  <wpt lat="33.99133" lon="-115.697754">
    <time>2020-06-20T18:51:17Z</time>
    <name>hard spot</name>
    <ele>579</ele>
    <sym>OBSTACLE</sym>
    <cmt></cmt>
    <desc></desc>
    <type>Waypoint</type>
    <extensions>
      <mgn:extensions xmlns:mgn="http://www.magellangps.com/mgnext/0/2">
        <mgn:trkptid>33.99125,-115.697886,15</mgn:trkptid>
        <mgn:uuid>3a66b054-9100-450a-b220-d95aff549087</mgn:uuid>
        <mgn:trkuuid>c94cbd11-ab5b-4ac7-9050-10a504f36f57</mgn:trkuuid>
        <mgn:proplist>
          <mgn:prop key="WD">Some</mgn:prop>
          <mgn:prop key="LO">Must</mgn:prop>
          <mgn:prop key="DIRT"></mgn:prop>
          <mgn:prop key="T_MUD"></mgn:prop>
          <mgn:prop key="T_SAND"></mgn:prop>
          <mgn:prop key="T_SNOW"></mgn:prop>
          <mgn:prop key="T_ICE"></mgn:prop>
          <mgn:prop key="T_WATER"></mgn:prop>
          <mgn:prop key="T_ROCK">0-6N</mgn:prop>
          <mgn:prop key="PITCH">10-20</mgn:prop>
          <mgn:prop key="ROLL"></mgn:prop>
        </mgn:proplist>
      </mgn:extensions>
    </extensions>
  </wpt>

  <wpt lat="33.990736" lon="-115.696062">
    <time>2020-06-20T19:07:22Z</time>
    <name>Flag Building</name>
    <ele>541</ele>
    <sym>SIGHT_SEEING</sym>
    <cmt></cmt>
    <desc></desc>
    <type>Waypoint</type>
    <extensions>
      <mgn:extensions xmlns:mgn="http://www.magellangps.com/mgnext/0/2">
        <mgn:trkptid>33.990706,-115.696058,3</mgn:trkptid>
        <mgn:uuid>034f818b-533d-4b8e-bbcb-7d06a665e475</mgn:uuid>
        <mgn:trkuuid>c94cbd11-ab5b-4ac7-9050-10a504f36f57</mgn:trkuuid>
      </mgn:extensions>
    </extensions>
  </wpt>

  <wpt lat="33.987784" lon="-115.69484">
    <time>2020-06-20T19:41:50Z</time>
    <name>Joshua Tree park entrance</name>
    <ele>521</ele>
    <sym>GENERAL</sym>
    <cmt></cmt>
    <desc></desc>
    <type>Waypoint</type>
    <extensions>
      <mgn:extensions xmlns:mgn="http://www.magellangps.com/mgnext/0/2">
        <mgn:trkptid>33.987808,-115.694853,2</mgn:trkptid>
        <mgn:uuid>e4d6c51f-17f3-451f-8c13-6841644b472c</mgn:uuid>
        <mgn:trkuuid>c94cbd11-ab5b-4ac7-9050-10a504f36f57</mgn:trkuuid>
      </mgn:extensions>
    </extensions>
  </wpt>

  <wpt lat="33.961018" lon="-115.692209">
    <time>2020-06-20T20:00:47Z</time>
    <name>Abandoned well ruins</name>
    <ele>431</ele>
    <sym>WATER</sym>
    <cmt></cmt>
    <desc></desc>
    <type>Waypoint</type>
    <extensions>
      <mgn:extensions xmlns:mgn="http://www.magellangps.com/mgnext/0/2">
        <mgn:trkptid>33.961036,-115.692139,6</mgn:trkptid>
        <mgn:uuid>5bb19e87-43b1-4124-b44c-454e0a05c052</mgn:uuid>
        <mgn:trkuuid>c94cbd11-ab5b-4ac7-9050-10a504f36f57</mgn:trkuuid>
      </mgn:extensions>
    </extensions>
  </wpt>
</gpx>